Observation data for Snyder SSW on 07/20/2019      Previous  Date       Current Mesonet Observations  Soil Data  Daily Summary Page  Observations in Plain Language
KWT1 200500Z 17010KT 29/16 A2995 RMK A01 T02850157  RH  046%=      5-min Rain = 0
KWT1 200501Z 16010KT 28/16 A2995 RMK A01 T02840157  RH  046%=      5-min Rain = 0
KWT1 200502Z 17010KT 28/16 A2995 RMK A01 T02840157  RH  046%=      5-min Rain = 0
KWT1 200503Z 16010KT 28/16 A2995 RMK A01 T02840157  RH  046%=      5-min Rain = 0
KWT1 200504Z 16010KT 28/16 A2995 RMK A01 T02840157  RH  046%=      5-min Rain = 0
KWT1 200505Z 17009KT 28/16 A2995 RMK A01 T02830157  RH  046%=      5-min Rain = 0
KWT1 200506Z 16010KT 28/16 A2995 RMK A01 T02830157  RH  046%=      5-min Rain = 0
KWT1 200507Z 17009KT 28/16 A2995 RMK A01 T02820157  RH  047%=      5-min Rain = 0
KWT1 200508Z 17009KT 28/16 A2995 RMK A01 T02820157  RH  047%=      5-min Rain = 0
KWT1 200509Z 17009KT 28/16 A2995 RMK A01 T02810157  RH  047%=      5-min Rain = 0
KWT1 200510Z 17010KT 28/16 A2995 RMK A01 T02810157  RH  047%=      5-min Rain = 0
KWT1 200511Z 17009KT 28/16 A2995 RMK A01 T02810157  RH  047%=      5-min Rain = 0
KWT1 200512Z 17010KT 28/16 A2995 RMK A01 T02810157  RH  047%=      5-min Rain = 0
KWT1 200513Z 17009KT 28/16 A2995 RMK A01 T02800157  RH  047%=      5-min Rain = 0
KWT1 200514Z 17008KT 28/16 A2995 RMK A01 T02800157  RH  047%=      5-min Rain = 0
KWT1 200515Z 17010KT 28/16 A2995 RMK A01 T02800158  RH  047%=      5-min Rain = 0
KWT1 200516Z 17011KT 28/16 A2995 RMK A01 T02790157  RH  048%=      5-min Rain = 0
KWT1 200517Z 17009KT 28/16 A2995 RMK A01 T02790157  RH  047%=      5-min Rain = 0
KWT1 200518Z 17010KT 28/16 A2995 RMK A01 T02790158  RH  048%=      5-min Rain = 0
KWT1 200519Z 17009KT 28/16 A2995 RMK A01 T02780157  RH  048%=      5-min Rain = 0
KWT1 200520Z 17008KT 28/16 A2995 RMK A01 T02780158  RH  048%=      5-min Rain = 0
KWT1 200521Z 17009KT 28/16 A2995 RMK A01 T02770157  RH  048%=      5-min Rain = 0
KWT1 200522Z 17010KT 28/16 A2995 RMK A01 T02770157  RH  048%=      5-min Rain = 0
KWT1 200523Z 17010KT 28/16 A2995 RMK A01 T02770157  RH  048%=      5-min Rain = 0
KWT1 200524Z 17010KT 28/16 A2995 RMK A01 T02770157  RH  048%=      5-min Rain = 0
KWT1 200525Z 17010KT 28/16 A2995 RMK A01 T02770157  RH  048%=      5-min Rain = 0
KWT1 200526Z 16012KT 28/16 A2995 RMK A01 T02770158  RH  048%=      5-min Rain = 0
KWT1 200527Z 17009KT 28/16 A2995 RMK A01 T02770157  RH  048%=      5-min Rain = 0
KWT1 200528Z 16011KT 28/16 A2995 RMK A01 T02770157  RH  048%=      5-min Rain = 0
KWT1 200529Z 17010KT 28/16 A2995 RMK A01 T02770157  RH  048%=      5-min Rain = 0
KWT1 200530Z 17010KT 28/16 A2995 RMK A01 T02770157  RH  048%=      5-min Rain = 0
KWT1 200531Z 17011KT 28/16 A2995 RMK A01 T02770157  RH  048%=      5-min Rain = 0
KWT1 200532Z 17009KT 28/16 A2995 RMK A01 T02760157  RH  048%=      5-min Rain = 0
KWT1 200533Z 17010KT 28/16 A2995 RMK A01 T02760157  RH  048%=      5-min Rain = 0
KWT1 200534Z 17010KT 28/16 A2995 RMK A01 T02750157  RH  048%=      5-min Rain = 0
KWT1 200535Z 17010KT 28/16 A2995 RMK A01 T02750157  RH  048%=      5-min Rain = 0
KWT1 200536Z 17010KT 28/16 A2995 RMK A01 T02750157  RH  049%=      5-min Rain = 0
KWT1 200537Z 17011KT 28/16 A2995 RMK A01 T02750157  RH  049%=      5-min Rain = 0
KWT1 200538Z 17011KT 28/16 A2995 RMK A01 T02750157  RH  049%=      5-min Rain = 0
KWT1 200539Z 17010KT 28/16 A2995 RMK A01 T02750157  RH  049%=      5-min Rain = 0
KWT1 200540Z 17010KT 27/16 A2995 RMK A01 T02740157  RH  049%=      5-min Rain = 0
KWT1 200541Z 17010KT 27/16 A2995 RMK A01 T02740157  RH  049%=      5-min Rain = 0
KWT1 200542Z 16010KT 27/16 A2995 RMK A01 T02730157  RH  049%=      5-min Rain = 0
KWT1 200543Z 17011KT 27/16 A2995 RMK A01 T02730157  RH  049%=      5-min Rain = 0
KWT1 200544Z 17010KT 27/16 A2995 RMK A01 T02730157  RH  049%=      5-min Rain = 0
KWT1 200545Z 17011KT 27/16 A2995 RMK A01 T02720157  RH  049%=      5-min Rain = 0
KWT1 200546Z 17010KT 27/16 A2995 RMK A01 T02720157  RH  049%=      5-min Rain = 0
KWT1 200547Z 17010KT 27/16 A2995 RMK A01 T02720157  RH  049%=      5-min Rain = 0
KWT1 200548Z 17010KT 27/16 A2995 RMK A01 T02710157  RH  049%=      5-min Rain = 0
KWT1 200549Z 17011KT 27/16 A2995 RMK A01 T02710157  RH  050%=      5-min Rain = 0
KWT1 200550Z 17009KT 27/16 A2995 RMK A01 T02710157  RH  050%=      5-min Rain = 0
KWT1 200551Z 17009KT 27/16 A2995 RMK A01 T02700157  RH  050%=      5-min Rain = 0
KWT1 200552Z 17010KT 27/16 A2995 RMK A01 T02700157  RH  050%=      5-min Rain = 0
KWT1 200553Z 17010KT 27/16 A2995 RMK A01 T02700157  RH  050%=      5-min Rain = 0
KWT1 200554Z 17010KT 27/16 A2995 RMK A01 T02690157  RH  050%=      5-min Rain = 0
KWT1 200555Z 17009KT 27/16 A2995 RMK A01 T02690157  RH  050%=      5-min Rain = 0
KWT1 200556Z 17010KT 27/16 A2995 RMK A01 T02690157  RH  050%=      5-min Rain = 0
KWT1 200557Z 17010KT 27/16 A2995 RMK A01 T02690157  RH  050%=      5-min Rain = 0
KWT1 200558Z 17009KT 27/16 A2995 RMK A01 T02690157  RH  050%=      5-min Rain = 0
KWT1 200559Z 17009KT 27/16 A2995 RMK A01 T02690157  RH  050%=      5-min Rain = 0
KWT1 200600Z 17010KT 27/16 A2995 RMK A01 T02690157  RH  050%=      5-min Rain = 0
KWT1 200601Z 17011KT 27/16 A2995 RMK A01 T02690157  RH  050%=      5-min Rain = 0
KWT1 200602Z 17010KT 27/16 A2995 RMK A01 T02690157  RH  050%=      5-min Rain = 0
KWT1 200603Z 17010KT 27/16 A2995 RMK A01 T02690156  RH  050%=      5-min Rain = 0
KWT1 200604Z 17010KT 27/16 A2995 RMK A01 T02690157  RH  050%=      5-min Rain = 0
KWT1 200605Z 17010KT 27/16 A2995 RMK A01 T02690156  RH  050%=      5-min Rain = 0
KWT1 200606Z 17010KT 27/16 A2995 RMK A01 T02690156  RH  050%=      5-min Rain = 0
KWT1 200607Z 17011KT 27/16 A2995 RMK A01 T02690156  RH  050%=      5-min Rain = 0
KWT1 200608Z 17009KT 27/16 A2995 RMK A01 T02680156  RH  050%=      5-min Rain = 0
KWT1 200609Z 17012KT 27/16 A2995 RMK A01 T02680156  RH  050%=      5-min Rain = 0
KWT1 200610Z 17011KT 27/16 A2995 RMK A01 T02680156  RH  050%=      5-min Rain = 0
KWT1 200611Z 17010KT 27/16 A2994 RMK A01 T02680156  RH  050%=      5-min Rain = 0
KWT1 200612Z 17011KT 27/16 A2994 RMK A01 T02680156  RH  050%=      5-min Rain = 0
KWT1 200613Z 17010KT 27/16 A2994 RMK A01 T02680156  RH  050%=      5-min Rain = 0
KWT1 200614Z 16010KT 27/16 A2994 RMK A01 T02670156  RH  050%=      5-min Rain = 0
KWT1 200615Z 17011KT 27/16 A2994 RMK A01 T02670156  RH  051%=      5-min Rain = 0
KWT1 200616Z 17010KT 27/16 A2995 RMK A01 T02670156  RH  051%=      5-min Rain = 0
KWT1 200617Z 17010KT 27/16 A2995 RMK A01 T02670156  RH  051%=      5-min Rain = 0
KWT1 200618Z 17010KT 27/16 A2995 RMK A01 T02670156  RH  051%=      5-min Rain = 0
KWT1 200619Z 17012KT 27/16 A2995 RMK A01 T02670156  RH  051%=      5-min Rain = 0
KWT1 200620Z 17011KT 27/16 A2995 RMK A01 T02670155  RH  050%=      5-min Rain = 0
KWT1 200621Z 17010KT 27/16 A2994 RMK A01 T02670156  RH  050%=      5-min Rain = 0
KWT1 200622Z 17011KT 27/16 A2994 RMK A01 T02670156  RH  050%=      5-min Rain = 0
KWT1 200623Z 17012KT 27/16 A2994 RMK A01 T02670156  RH  050%=      5-min Rain = 0
KWT1 200624Z 17011KT 27/16 A2994 RMK A01 T02670155  RH  050%=      5-min Rain = 0
KWT1 200625Z 17010KT 27/16 A2994 RMK A01 T02680156  RH  050%=      5-min Rain = 0
KWT1 200626Z 17011KT 27/16 A2994 RMK A01 T02670156  RH  050%=      5-min Rain = 0
KWT1 200627Z 17012KT 27/16 A2994 RMK A01 T02670156  RH  050%=      5-min Rain = 0
KWT1 200628Z 17012KT 27/16 A2994 RMK A01 T02670156  RH  050%=      5-min Rain = 0
KWT1 200629Z 17011KT 27/16 A2994 RMK A01 T02680156  RH  050%=      5-min Rain = 0
KWT1 200630Z 17011KT 27/16 A2994 RMK A01 T02670156  RH  050%=      5-min Rain = 0
KWT1 200631Z 17012KT 27/16 A2994 RMK A01 T02670156  RH  050%=      5-min Rain = 0
KWT1 200632Z 16011KT 27/16 A2994 RMK A01 T02670156  RH  051%=      5-min Rain = 0
KWT1 200633Z 17011KT 27/16 A2994 RMK A01 T02660156  RH  051%=      5-min Rain = 0
KWT1 200634Z 17011KT 27/16 A2994 RMK A01 T02670157  RH  051%=      5-min Rain = 0
KWT1 200635Z 17010KT 27/16 A2994 RMK A01 T02670157  RH  051%=      5-min Rain = 0
KWT1 200636Z 17011KT 27/16 A2994 RMK A01 T02660157  RH  051%=      5-min Rain = 0
KWT1 200637Z 17012KT 27/16 A2994 RMK A01 T02660157  RH  051%=      5-min Rain = 0
KWT1 200638Z 17011KT 27/16 A2994 RMK A01 T02660158  RH  051%=      5-min Rain = 0
KWT1 200639Z 17011KT 27/16 A2994 RMK A01 T02660158  RH  051%=      5-min Rain = 0
KWT1 200640Z 17010KT 27/16 A2994 RMK A01 T02650158  RH  052%=      5-min Rain = 0
KWT1 200641Z 17010KT 27/16 A2994 RMK A01 T02650158  RH  052%=      5-min Rain = 0
KWT1 200642Z 17011KT 27/16 A2994 RMK A01 T02650159  RH  052%=      5-min Rain = 0
KWT1 200643Z 17011KT 27/16 A2994 RMK A01 T02650159  RH  052%=      5-min Rain = 0
KWT1 200644Z 17012KT 26/16 A2994 RMK A01 T02640159  RH  052%=      5-min Rain = 0
KWT1 200645Z 17011KT 26/16 A2994 RMK A01 T02640160  RH  053%=      5-min Rain = 0
KWT1 200646Z 17012KT 26/16 A2994 RMK A01 T02640160  RH  053%=      5-min Rain = 0
KWT1 200647Z 17012KT 26/16 A2994 RMK A01 T02640160  RH  053%=      5-min Rain = 0
KWT1 200648Z 17011KT 27/16 A2994 RMK A01 T02650161  RH  053%=      5-min Rain = 0
KWT1 200649Z 17012KT 27/16 A2994 RMK A01 T02650161  RH  053%=      5-min Rain = 0
KWT1 200650Z 17011KT 27/16 A2994 RMK A01 T02650161  RH  053%=      5-min Rain = 0
KWT1 200651Z 17012KT 27/16 A2994 RMK A01 T02650161  RH  053%=      5-min Rain = 0
KWT1 200652Z 17011KT 27/16 A2994 RMK A01 T02650161  RH  053%=      5-min Rain = 0
KWT1 200653Z 17012KT 27/16 A2994 RMK A01 T02650162  RH  053%=      5-min Rain = 0
KWT1 200654Z 17012KT 27/16 A2994 RMK A01 T02650162  RH  053%=      5-min Rain = 0
KWT1 200655Z 17013KT 27/16 A2994 RMK A01 T02650162  RH  053%=      5-min Rain = 0
KWT1 200656Z 17012KT 27/16 A2994 RMK A01 T02650163  RH  053%=      5-min Rain = 0
KWT1 200657Z 17011KT 26/16 A2994 RMK A01 T02640162  RH  053%=      5-min Rain = 0
KWT1 200658Z 17013KT 26/16 A2994 RMK A01 T02640163  RH  054%=      5-min Rain = 0
KWT1 200659Z 17012KT 26/16 A2994 RMK A01 T02640163  RH  054%=      5-min Rain = 0
KWT1 200700Z 17012KT 26/16 A2994 RMK A01 T02640162  RH  054%=      5-min Rain = 0
KWT1 200701Z 17013KT 26/16 A2994 RMK A01 T02640163  RH  054%=      5-min Rain = 0
KWT1 200702Z 17012KT 26/16 A2994 RMK A01 T02640163  RH  054%=      5-min Rain = 0
KWT1 200703Z 17011KT 26/16 A2994 RMK A01 T02640163  RH  054%=      5-min Rain = 0
KWT1 200704Z 17013KT 27/16 A2994 RMK A01 T02650164  RH  054%=      5-min Rain = 0
KWT1 200705Z 17013KT 27/16 A2994 RMK A01 T02650164  RH  054%=      5-min Rain = 0
KWT1 200706Z 17012KT 27/16 A2994 RMK A01 T02650164  RH  054%=      5-min Rain = 0
KWT1 200707Z 17012KT 27/16 A2994 RMK A01 T02650164  RH  054%=      5-min Rain = 0
KWT1 200708Z 17010KT 27/16 A2994 RMK A01 T02650164  RH  054%=      5-min Rain = 0
KWT1 200709Z 17011KT 26/16 A2994 RMK A01 T02640164  RH  054%=      5-min Rain = 0
KWT1 200710Z 17011KT 26/16 A2994 RMK A01 T02640164  RH  054%=      5-min Rain = 0
KWT1 200711Z 17010KT 26/16 A2994 RMK A01 T02630164  RH  054%=      5-min Rain = 0
KWT1 200712Z 17010G15KT 26/16 A2994 RMK A01 T02630164  RH  054%=      5-min Rain = 0
KWT1 200713Z 17012KT 26/16 A2994 RMK A01 T02630164  RH  055%=      5-min Rain = 0
KWT1 200714Z 17011KT 26/16 A2994 RMK A01 T02620164  RH  055%=      5-min Rain = 0
KWT1 200715Z 17011KT 26/16 A2994 RMK A01 T02630164  RH  055%=      5-min Rain = 0
KWT1 200716Z 17011KT 26/16 A2994 RMK A01 T02630164  RH  055%=      5-min Rain = 0
KWT1 200717Z 17011KT 26/16 A2994 RMK A01 T02630164  RH  055%=      5-min Rain = 0
KWT1 200718Z 17012KT 26/16 A2994 RMK A01 T02620164  RH  055%=      5-min Rain = 0
KWT1 200719Z 17011KT 26/16 A2994 RMK A01 T02620164  RH  055%=      5-min Rain = 0
KWT1 200720Z 17011KT 26/16 A2994 RMK A01 T02620164  RH  055%=      5-min Rain = 0
KWT1 200721Z 17009KT 26/16 A2994 RMK A01 T02620164  RH  055%=      5-min Rain = 0
KWT1 200722Z 17011KT 26/16 A2994 RMK A01 T02610164  RH  055%=      5-min Rain = 0
KWT1 200723Z 17011KT 26/16 A2994 RMK A01 T02610164  RH  055%=      5-min Rain = 0
KWT1 200724Z 16010KT 26/16 A2994 RMK A01 T02610164  RH  055%=      5-min Rain = 0
KWT1 200725Z 17012KT 26/16 A2994 RMK A01 T02610164  RH  055%=      5-min Rain = 0
KWT1 200726Z 17011KT 26/16 A2994 RMK A01 T02600164  RH  055%=      5-min Rain = 0
KWT1 200727Z 17012KT 26/16 A2994 RMK A01 T02600164  RH  055%=      5-min Rain = 0
KWT1 200728Z 16012KT 26/17 A2994 RMK A01 T02610165  RH  055%=      5-min Rain = 0
KWT1 200729Z 17011KT 26/17 A2994 RMK A01 T02600165  RH  056%=      5-min Rain = 0
KWT1 200730Z 17012KT 26/17 A2994 RMK A01 T02610165  RH  056%=      5-min Rain = 0
KWT1 200731Z 17012KT 26/17 A2994 RMK A01 T02600165  RH  056%=      5-min Rain = 0
KWT1 200732Z 17013KT 26/17 A2994 RMK A01 T02600165  RH  056%=      5-min Rain = 0
KWT1 200733Z 17011KT 26/17 A2994 RMK A01 T02610166  RH  056%=      5-min Rain = 0
KWT1 200734Z 17013KT 26/17 A2994 RMK A01 T02610166  RH  056%=      5-min Rain = 0
KWT1 200735Z 17013KT 26/17 A2994 RMK A01 T02610166  RH  056%=      5-min Rain = 0
KWT1 200736Z 17013KT 26/17 A2994 RMK A01 T02610167  RH  056%=      5-min Rain = 0
KWT1 200737Z 17011KT 26/17 A2994 RMK A01 T02610167  RH  056%=      5-min Rain = 0
KWT1 200738Z 17011KT 26/17 A2994 RMK A01 T02610167  RH  056%=      5-min Rain = 0
KWT1 200739Z 17011KT 26/17 A2993 RMK A01 T02610167  RH  056%=      5-min Rain = 0
KWT1 200740Z 17013KT 26/17 A2993 RMK A01 T02610167  RH  056%=      5-min Rain = 0
KWT1 200741Z 17014KT 26/17 A2993 RMK A01 T02610168  RH  056%=      5-min Rain = 0
KWT1 200742Z 17010KT 26/17 A2993 RMK A01 T02610168  RH  057%=      5-min Rain = 0
KWT1 200743Z 17012KT 26/17 A2993 RMK A01 T02610169  RH  057%=      5-min Rain = 0
KWT1 200744Z 18012KT 26/17 A2993 RMK A01 T02610168  RH  057%=      5-min Rain = 0
KWT1 200745Z 17013KT 26/17 A2993 RMK A01 T02610169  RH  057%=      5-min Rain = 0
KWT1 200746Z 17012KT 26/17 A2993 RMK A01 T02610169  RH  057%=      5-min Rain = 0
KWT1 200747Z 17011KT 26/17 A2993 RMK A01 T02610169  RH  057%=      5-min Rain = 0
KWT1 200748Z 17011G16KT 26/17 A2993 RMK A01 T02610169  RH  057%=      5-min Rain = 0
KWT1 200749Z 18012KT 26/17 A2993 RMK A01 T02610170  RH  057%=      5-min Rain = 0
KWT1 200750Z 17012KT 26/17 A2993 RMK A01 T02610170  RH  057%=      5-min Rain = 0
KWT1 200751Z 17011KT 26/17 A2993 RMK A01 T02610170  RH  057%=      5-min Rain = 0
KWT1 200752Z 18013KT 26/17 A2993 RMK A01 T02610170  RH  057%=      5-min Rain = 0
KWT1 200753Z 18011KT 26/17 A2993 RMK A01 T02610171  RH  057%=      5-min Rain = 0
KWT1 200754Z 18012KT 26/17 A2993 RMK A01 T02610171  RH  057%=      5-min Rain = 0
KWT1 200755Z 18010KT 26/17 A2993 RMK A01 T02610171  RH  057%=      5-min Rain = 0
KWT1 200756Z 18011KT 26/17 A2993 RMK A01 T02610171  RH  057%=      5-min Rain = 0
KWT1 200757Z 17012KT 26/17 A2993 RMK A01 T02610171  RH  058%=      5-min Rain = 0
KWT1 200758Z 17009KT 26/17 A2993 RMK A01 T02620171  RH  058%=      5-min Rain = 0
KWT1 200759Z 17011KT 26/17 A2993 RMK A01 T02620172  RH  058%=      5-min Rain = 0
KWT1 200800Z 17011KT 26/17 A2993 RMK A01 T02620172  RH  058%=      5-min Rain = 0
KWT1 200801Z 17013KT 26/17 A2993 RMK A01 T02620172  RH  058%=      5-min Rain = 0
KWT1 200802Z 17014KT 26/17 A2993 RMK A01 T02620172  RH  058%=      5-min Rain = 0
KWT1 200803Z 17012KT 26/17 A2993 RMK A01 T02620172  RH  058%=      5-min Rain = 0
KWT1 200804Z 17012KT 26/17 A2993 RMK A01 T02620172  RH  058%=      5-min Rain = 0
KWT1 200805Z 17011KT 26/17 A2993 RMK A01 T02620172  RH  058%=      5-min Rain = 0
KWT1 200806Z 17010KT 26/17 A2993 RMK A01 T02620173  RH  058%=      5-min Rain = 0
KWT1 200807Z 17012KT 26/17 A2993 RMK A01 T02620172  RH  058%=      5-min Rain = 0
KWT1 200808Z 18011KT 26/17 A2993 RMK A01 T02620173  RH  058%=      5-min Rain = 0
KWT1 200809Z 17010KT 26/17 A2993 RMK A01 T02620173  RH  058%=      5-min Rain = 0
KWT1 200810Z 18010KT 26/17 A2993 RMK A01 T02620173  RH  058%=      5-min Rain = 0
KWT1 200811Z 17010KT 26/17 A2993 RMK A01 T02620173  RH  058%=      5-min Rain = 0
KWT1 200812Z 18012KT 26/17 A2993 RMK A01 T02620173  RH  058%=      5-min Rain = 0
KWT1 200813Z 17011KT 26/17 A2993 RMK A01 T02620173  RH  058%=      5-min Rain = 0
KWT1 200814Z 18011KT 26/17 A2993 RMK A01 T02620173  RH  058%=      5-min Rain = 0
KWT1 200815Z 18011KT 26/17 A2993 RMK A01 T02620173  RH  058%=      5-min Rain = 0
KWT1 200816Z 18013KT 26/17 A2993 RMK A01 T02620173  RH  058%=      5-min Rain = 0
KWT1 200817Z 17011KT 26/17 A2993 RMK A01 T02620173  RH  058%=      5-min Rain = 0
KWT1 200818Z 17011KT 26/17 A2993 RMK A01 T02620173  RH  058%=      5-min Rain = 0
KWT1 200819Z 17011KT 26/17 A2993 RMK A01 T02620173  RH  058%=      5-min Rain = 0
KWT1 200820Z 17012KT 26/17 A2993 RMK A01 T02620173  RH  058%=      5-min Rain = 0
KWT1 200821Z 17011KT 26/17 A2993 RMK A01 T02620173  RH  058%=      5-min Rain = 0
KWT1 200822Z 17011KT 26/17 A2993 RMK A01 T02620173  RH  058%=      5-min Rain = 0
KWT1 200823Z 17011KT 26/17 A2993 RMK A01 T02620173  RH  058%=      5-min Rain = 0
KWT1 200824Z 17011KT 26/17 A2993 RMK A01 T02620173  RH  058%=      5-min Rain = 0
KWT1 200825Z 17010KT 26/17 A2993 RMK A01 T02620174  RH  058%=      5-min Rain = 0
KWT1 200826Z 17010KT 26/17 A2993 RMK A01 T02610173  RH  058%=      5-min Rain = 0
KWT1 200827Z 17010KT 26/17 A2993 RMK A01 T02610173  RH  059%=      5-min Rain = 0
KWT1 200828Z 17009KT 26/17 A2993 RMK A01 T02600173  RH  059%=      5-min Rain = 0
KWT1 200829Z 17010KT 26/17 A2993 RMK A01 T02600174  RH  059%=      5-min Rain = 0
KWT1 200830Z 17012KT 26/17 A2993 RMK A01 T02600174  RH  059%=      5-min Rain = 0
KWT1 200831Z 18011KT 26/17 A2993 RMK A01 T02600174  RH  059%=      5-min Rain = 0
KWT1 200832Z 17010KT 26/17 A2993 RMK A01 T02600174  RH  059%=      5-min Rain = 0
KWT1 200833Z 17012KT 26/17 A2993 RMK A01 T02600174  RH  059%=      5-min Rain = 0
KWT1 200834Z 17012KT 26/17 A2993 RMK A01 T02590174  RH  059%=      5-min Rain = 0
KWT1 200835Z 17011KT 26/17 A2993 RMK A01 T02590174  RH  059%=      5-min Rain = 0
KWT1 200836Z 17013KT 26/18 A2993 RMK A01 T02600175  RH  059%=      5-min Rain = 0
KWT1 200837Z 17011KT 26/18 A2993 RMK A01 T02590175  RH  060%=      5-min Rain = 0
KWT1 200838Z 17011G16KT 26/18 A2993 RMK A01 T02590175  RH  060%=      5-min Rain = 0
KWT1 200839Z 17013KT 26/18 A2993 RMK A01 T02590175  RH  060%=      5-min Rain = 0
KWT1 200840Z 17011KT 26/18 A2993 RMK A01 T02590175  RH  060%=      5-min Rain = 0
KWT1 200841Z 17010KT 26/18 A2993 RMK A01 T02590175  RH  060%=      5-min Rain = 0
KWT1 200842Z 17011KT 26/18 A2993 RMK A01 T02590175  RH  060%=      5-min Rain = 0
KWT1 200843Z 17012KT 26/18 A2993 RMK A01 T02580176  RH  060%=      5-min Rain = 0
KWT1 200844Z 17012KT 26/18 A2993 RMK A01 T02580176  RH  060%=      5-min Rain = 0
KWT1 200845Z 17012KT 26/18 A2993 RMK A01 T02580176  RH  061%=      5-min Rain = 0
KWT1 200846Z 17011KT 26/18 A2993 RMK A01 T02580177  RH  061%=      5-min Rain = 0
KWT1 200847Z 17013KT 26/18 A2993 RMK A01 T02580176  RH  061%=      5-min Rain = 0
KWT1 200848Z 17012KT 26/18 A2993 RMK A01 T02580177  RH  061%=      5-min Rain = 0
KWT1 200849Z 17013KT 26/18 A2993 RMK A01 T02580177  RH  061%=      5-min Rain = 0
KWT1 200850Z 17011KT 26/18 A2993 RMK A01 T02580177  RH  061%=      5-min Rain = 0
KWT1 200851Z 16011KT 26/18 A2993 RMK A01 T02580177  RH  061%=      5-min Rain = 0
KWT1 200852Z 17012KT 26/18 A2993 RMK A01 T02570177  RH  061%=      5-min Rain = 0
KWT1 200853Z 17011KT 26/18 A2993 RMK A01 T02570178  RH  061%=      5-min Rain = 0
KWT1 200854Z 17013KT 26/18 A2993 RMK A01 T02570178  RH  062%=      5-min Rain = 0
KWT1 200855Z 17011G16KT 26/18 A2993 RMK A01 T02570178  RH  062%=      5-min Rain = 0
KWT1 200856Z 17010KT 26/18 A2993 RMK A01 T02570178  RH  062%=      5-min Rain = 0
KWT1 200857Z 17012KT 26/18 A2993 RMK A01 T02570178  RH  062%=      5-min Rain = 0
KWT1 200858Z 17012KT 26/18 A2993 RMK A01 T02570179  RH  062%=      5-min Rain = 0
KWT1 200859Z 17009KT 26/18 A2993 RMK A01 T02570179  RH  062%=      5-min Rain = 0
KWT1 200900Z 17011KT 26/18 A2993 RMK A01 T02560179  RH  062%=      5-min Rain = 0
KWT1 200901Z 17010KT 26/18 A2993 RMK A01 T02560179  RH  062%=      5-min Rain = 0
KWT1 200902Z 17013KT 26/18 A2993 RMK A01 T02560179  RH  062%=      5-min Rain = 0
KWT1 200903Z 17012KT 26/18 A2993 RMK A01 T02560179  RH  063%=      5-min Rain = 0
KWT1 200904Z 17011KT 26/18 A2993 RMK A01 T02560180  RH  063%=      5-min Rain = 0
KWT1 200905Z 17013KT 26/18 A2993 RMK A01 T02560180  RH  063%=      5-min Rain = 0
KWT1 200906Z 17012KT 26/18 A2993 RMK A01 T02560180  RH  063%=      5-min Rain = 0
KWT1 200907Z 17012KT 26/18 A2993 RMK A01 T02550180  RH  063%=      5-min Rain = 0
KWT1 200908Z 17013KT 26/18 A2993 RMK A01 T02550180  RH  063%=      5-min Rain = 0
KWT1 200909Z 17012KT 26/18 A2993 RMK A01 T02560181  RH  063%=      5-min Rain = 0
KWT1 200910Z 17012KT 26/18 A2993 RMK A01 T02550180  RH  063%=      5-min Rain = 0
KWT1 200911Z 17011G16KT 26/18 A2993 RMK A01 T02550181  RH  063%=      5-min Rain = 0
KWT1 200912Z 17012KT 26/18 A2993 RMK A01 T02550181  RH  064%=      5-min Rain = 0
KWT1 200913Z 17011KT 26/18 A2993 RMK A01 T02550181  RH  064%=      5-min Rain = 0
KWT1 200914Z 17011KT 26/18 A2993 RMK A01 T02550181  RH  064%=      5-min Rain = 0
KWT1 200915Z 17010KT 26/18 A2993 RMK A01 T02550181  RH  064%=      5-min Rain = 0
KWT1 200916Z 17013KT 25/18 A2993 RMK A01 T02540182  RH  064%=      5-min Rain = 0
KWT1 200917Z 17012KT 25/18 A2993 RMK A01 T02540182  RH  064%=      5-min Rain = 0
KWT1 200918Z 17012KT 25/18 A2993 RMK A01 T02540182  RH  064%=      5-min Rain = 0
KWT1 200919Z 17012KT 26/18 A2993 RMK A01 T02550183  RH  064%=      5-min Rain = 0
KWT1 200920Z 17011KT 26/18 A2993 RMK A01 T02550183  RH  064%=      5-min Rain = 0
KWT1 200921Z 17009KT 26/18 A2994 RMK A01 T02550183  RH  065%=      5-min Rain = 0
KWT1 200922Z 17010KT 25/18 A2994 RMK A01 T02540183  RH  065%=      5-min Rain = 0
KWT1 200923Z 17011KT 25/18 A2994 RMK A01 T02530183  RH  065%=      5-min Rain = 0
KWT1 200924Z 17012KT 25/18 A2994 RMK A01 T02540184  RH  065%=      5-min Rain = 0
KWT1 200925Z 17010KT 25/18 A2994 RMK A01 T02530184  RH  065%=      5-min Rain = 0
KWT1 200926Z 17011KT 25/18 A2994 RMK A01 T02530184  RH  065%=      5-min Rain = 0
KWT1 200927Z 17011KT 25/18 A2994 RMK A01 T02530184  RH  066%=      5-min Rain = 0
KWT1 200928Z 17009KT 25/18 A2994 RMK A01 T02530184  RH  066%=      5-min Rain = 0
KWT1 200929Z 17010KT 25/18 A2994 RMK A01 T02520184  RH  066%=      5-min Rain = 0
KWT1 200930Z 17011KT 25/18 A2994 RMK A01 T02520184  RH  066%=      5-min Rain = 0
KWT1 200931Z 17010KT 25/19 A2994 RMK A01 T02520185  RH  066%=      5-min Rain = 0
KWT1 200932Z 17008KT 25/19 A2994 RMK A01 T02520185  RH  066%=      5-min Rain = 0
KWT1 200933Z 17010KT 25/19 A2994 RMK A01 T02520185  RH  066%=      5-min Rain = 0
KWT1 200934Z 17012KT 25/19 A2993 RMK A01 T02520185  RH  067%=      5-min Rain = 0
KWT1 200935Z 17011KT 25/19 A2993 RMK A01 T02520186  RH  067%=      5-min Rain = 0
KWT1 200936Z 17012G17KT 25/19 A2993 RMK A01 T02520185  RH  067%=      5-min Rain = 0
KWT1 200937Z 17011KT 25/19 A2993 RMK A01 T02520186  RH  067%=      5-min Rain = 0
KWT1 200938Z 17009KT 25/19 A2993 RMK A01 T02520186  RH  067%=      5-min Rain = 0
KWT1 200939Z 17011KT 25/19 A2993 RMK A01 T02520186  RH  067%=      5-min Rain = 0
KWT1 200940Z 18010KT 25/19 A2993 RMK A01 T02520187  RH  067%=      5-min Rain = 0
KWT1 200941Z 17010KT 25/19 A2994 RMK A01 T02520187  RH  067%=      5-min Rain = 0
KWT1 200942Z 17010KT 25/19 A2994 RMK A01 T02520187  RH  067%=      5-min Rain = 0
KWT1 200943Z 18010KT 25/19 A2994 RMK A01 T02520187  RH  067%=      5-min Rain = 0
KWT1 200944Z 18011KT 25/19 A2993 RMK A01 T02520187  RH  067%=      5-min Rain = 0
KWT1 200945Z 17010KT 25/19 A2994 RMK A01 T02520188  RH  068%=      5-min Rain = 0
KWT1 200946Z 18010KT 25/19 A2994 RMK A01 T02520188  RH  068%=      5-min Rain = 0
KWT1 200947Z 18011KT 25/19 A2994 RMK A01 T02510188  RH  068%=      5-min Rain = 0
KWT1 200948Z 18009KT 25/19 A2994 RMK A01 T02510188  RH  068%=      5-min Rain = 0
KWT1 200949Z 18010KT 25/19 A2994 RMK A01 T02520189  RH  068%=      5-min Rain = 0
KWT1 200950Z 18010KT 25/19 A2994 RMK A01 T02510188  RH  068%=      5-min Rain = 0
KWT1 200951Z 18010KT 25/19 A2994 RMK A01 T02510188  RH  068%=      5-min Rain = 0
KWT1 200952Z 18010KT 25/19 A2994 RMK A01 T02510188  RH  068%=      5-min Rain = 0
KWT1 200953Z 18009KT 25/19 A2994 RMK A01 T02510189  RH  068%=      5-min Rain = 0
KWT1 200954Z 17009KT 25/19 A2994 RMK A01 T02500189  RH  069%=      5-min Rain = 0
KWT1 200955Z 18009KT 25/19 A2994 RMK A01 T02500189  RH  069%=      5-min Rain = 0
KWT1 200956Z 18009KT 25/19 A2994 RMK A01 T02500189  RH  069%=      5-min Rain = 0
KWT1 200957Z 17009KT 25/19 A2994 RMK A01 T02500190  RH  069%=      5-min Rain = 0
KWT1 200958Z 18010KT 25/19 A2994 RMK A01 T02500190  RH  069%=      5-min Rain = 0
KWT1 200959Z 18008G13KT 25/19 A2994 RMK A01 T02490190  RH  069%=      5-min Rain = 0
KWT1 201000Z 18011KT 25/19 A2994 RMK A01 T02490190  RH  070%=      5-min Rain = 0
KWT1 201001Z 18009KT 25/19 A2994 RMK A01 T02490190  RH  070%=      5-min Rain = 0
KWT1 201002Z 18009KT 25/19 A2994 RMK A01 T02490190  RH  070%=      5-min Rain = 0
KWT1 201003Z 18010KT 25/19 A2994 RMK A01 T02490191  RH  070%=      5-min Rain = 0
KWT1 201004Z 18010KT 25/19 A2994 RMK A01 T02490191  RH  070%=      5-min Rain = 0
KWT1 201005Z 18009KT 25/19 A2994 RMK A01 T02490191  RH  070%=      5-min Rain = 0
KWT1 201006Z 18011KT 25/19 A2994 RMK A01 T02490191  RH  070%=      5-min Rain = 0
KWT1 201007Z 18010KT 25/19 A2994 RMK A01 T02480191  RH  070%=      5-min Rain = 0
KWT1 201008Z 18013KT 25/19 A2993 RMK A01 T02490192  RH  071%=      5-min Rain = 0
KWT1 201009Z 18010KT 25/19 A2993 RMK A01 T02480191  RH  071%=      5-min Rain = 0
KWT1 201010Z 18011KT 25/19 A2993 RMK A01 T02480191  RH  071%=      5-min Rain = 0
KWT1 201011Z 18010KT 25/19 A2993 RMK A01 T02480192  RH  071%=      5-min Rain = 0
KWT1 201012Z 18009KT 25/19 A2993 RMK A01 T02480192  RH  071%=      5-min Rain = 0
KWT1 201013Z 18011KT 25/19 A2993 RMK A01 T02480192  RH  071%=      5-min Rain = 0
KWT1 201014Z 18012KT 25/19 A2993 RMK A01 T02470192  RH  071%=      5-min Rain = 0
KWT1 201015Z 18012KT 25/19 A2993 RMK A01 T02470192  RH  071%=      5-min Rain = 0
KWT1 201016Z 18010KT 25/19 A2993 RMK A01 T02470192  RH  071%=      5-min Rain = 0
KWT1 201017Z 18009KT 25/19 A2993 RMK A01 T02470192  RH  071%=      5-min Rain = 0
KWT1 201018Z 17011KT 25/19 A2993 RMK A01 T02470192  RH  072%=      5-min Rain = 0
KWT1 201019Z 18013KT 25/19 A2993 RMK A01 T02460192  RH  072%=      5-min Rain = 0
KWT1 201020Z 18009KT 25/19 A2993 RMK A01 T02470192  RH  072%=      5-min Rain = 0
KWT1 201021Z 18010KT 25/19 A2993 RMK A01 T02470192  RH  072%=      5-min Rain = 0
KWT1 201022Z 17011KT 25/19 A2993 RMK A01 T02470193  RH  072%=      5-min Rain = 0
KWT1 201023Z 18011KT 25/19 A2993 RMK A01 T02460193  RH  072%=      5-min Rain = 0
KWT1 201024Z 18009KT 25/19 A2993 RMK A01 T02470193  RH  072%=      5-min Rain = 0
KWT1 201025Z 18011KT 25/19 A2993 RMK A01 T02460193  RH  072%=      5-min Rain = 0
KWT1 201026Z 18010KT 25/19 A2993 RMK A01 T02460193  RH  072%=      5-min Rain = 0
KWT1 201027Z 18009KT 25/19 A2994 RMK A01 T02450193  RH  073%=      5-min Rain = 0
KWT1 201028Z 18010KT 25/19 A2994 RMK A01 T02450193  RH  073%=      5-min Rain = 0
KWT1 201029Z 18010KT 25/19 A2994 RMK A01 T02450193  RH  073%=      5-min Rain = 0
KWT1 201030Z 18011KT 25/19 A2994 RMK A01 T02450194  RH  073%=      5-min Rain = 0
KWT1 201031Z 18010KT 25/19 A2994 RMK A01 T02450194  RH  073%=      5-min Rain = 0
KWT1 201032Z 18010KT 25/19 A2994 RMK A01 T02450193  RH  073%=      5-min Rain = 0
KWT1 201033Z 18009KT 25/19 A2994 RMK A01 T02450194  RH  073%=      5-min Rain = 0
KWT1 201034Z 18009KT 24/19 A2994 RMK A01 T02440194  RH  073%=      5-min Rain = 0
KWT1 201035Z 18008KT 24/19 A2994 RMK A01 T02440194  RH  073%=      5-min Rain = 0
KWT1 201036Z 18009KT 24/19 A2994 RMK A01 T02430194  RH  074%=      5-min Rain = 0
KWT1 201037Z 18009KT 24/19 A2994 RMK A01 T02430194  RH  074%=      5-min Rain = 0
KWT1 201038Z 18010KT 24/19 A2994 RMK A01 T02430194  RH  074%=      5-min Rain = 0
KWT1 201039Z 18010KT 24/19 A2994 RMK A01 T02430194  RH  074%=      5-min Rain = 0
KWT1 201040Z 18010KT 24/19 A2994 RMK A01 T02430194  RH  074%=      5-min Rain = 0
KWT1 201041Z 18009KT 24/19 A2994 RMK A01 T02430194  RH  074%=      5-min Rain = 0
KWT1 201042Z 17011G16KT 24/19 A2993 RMK A01 T02420194  RH  074%=      5-min Rain = 0
KWT1 201043Z 18011KT 24/19 A2994 RMK A01 T02430194  RH  074%=      5-min Rain = 0
KWT1 201044Z 18008KT 24/19 A2994 RMK A01 T02430194  RH  074%=      5-min Rain = 0
KWT1 201045Z 17010KT 24/19 A2994 RMK A01 T02430194  RH  074%=      5-min Rain = 0
KWT1 201046Z 17011KT 24/19 A2994 RMK A01 T02420194  RH  075%=      5-min Rain = 0
KWT1 201047Z 17012KT 24/20 A2994 RMK A01 T02420195  RH  075%=      5-min Rain = 0
KWT1 201048Z 18011KT 24/20 A2994 RMK A01 T02420195  RH  075%=      5-min Rain = 0
KWT1 201049Z 17008KT 24/20 A2994 RMK A01 T02430195  RH  075%=      5-min Rain = 0
KWT1 201050Z 18008KT 24/20 A2994 RMK A01 T02430195  RH  075%=      5-min Rain = 0
KWT1 201051Z 18009KT 24/20 A2994 RMK A01 T02420195  RH  075%=      5-min Rain = 0
KWT1 201052Z 18008KT 24/20 A2994 RMK A01 T02410195  RH  075%=      5-min Rain = 0
KWT1 201053Z 18011KT 24/20 A2994 RMK A01 T02410195  RH  076%=      5-min Rain = 0
KWT1 201054Z 18010KT 24/20 A2994 RMK A01 T02410195  RH  076%=      5-min Rain = 0
KWT1 201055Z 18012KT 24/20 A2994 RMK A01 T02410195  RH  076%=      5-min Rain = 0
KWT1 201056Z 18010KT 24/20 A2994 RMK A01 T02410196  RH  076%=      5-min Rain = 0
KWT1 201057Z 18009KT 24/20 A2994 RMK A01 T02410196  RH  075%=      5-min Rain = 0
KWT1 201058Z 19008KT 24/20 A2994 RMK A01 T02410196  RH  076%=      5-min Rain = 0
KWT1 201059Z 18009KT 24/20 A2994 RMK A01 T02410196  RH  076%=      5-min Rain = 0
KWT1 201100Z 19009KT 24/20 A2994 RMK A01 T02410196  RH  076%=      5-min Rain = 0
KWT1 201101Z 19007KT 24/20 A2994 RMK A01 T02400196  RH  076%=      5-min Rain = 0
KWT1 201102Z 19009KT 24/20 A2994 RMK A01 T02400196  RH  076%=      5-min Rain = 0
KWT1 201103Z 19008KT 24/20 A2994 RMK A01 T02390196  RH  077%=      5-min Rain = 0
KWT1 201104Z 19008KT 24/20 A2994 RMK A01 T02390196  RH  077%=      5-min Rain = 0
KWT1 201105Z 19008KT 24/20 A2994 RMK A01 T02390196  RH  077%=      5-min Rain = 0
KWT1 201106Z 19009KT 24/20 A2994 RMK A01 T02390196  RH  077%=      5-min Rain = 0
KWT1 201107Z 18009KT 24/20 A2994 RMK A01 T02390196  RH  077%=      5-min Rain = 0
KWT1 201108Z 19007KT 24/20 A2994 RMK A01 T02390196  RH  077%=      5-min Rain = 0
KWT1 201109Z 19008KT 24/20 A2994 RMK A01 T02390196  RH  077%=      5-min Rain = 0
KWT1 201110Z 19008KT 24/20 A2994 RMK A01 T02380196  RH  077%=      5-min Rain = 0
KWT1 201111Z 19007KT 24/20 A2994 RMK A01 T02380196  RH  077%=      5-min Rain = 0
KWT1 201112Z 18008KT 24/20 A2994 RMK A01 T02370196  RH  078%=      5-min Rain = 0
KWT1 201113Z 19008KT 24/20 A2994 RMK A01 T02370196  RH  078%=      5-min Rain = 0
KWT1 201114Z 19008KT 24/20 A2994 RMK A01 T02370196  RH  078%=      5-min Rain = 0
KWT1 201115Z 18008KT 24/20 A2994 RMK A01 T02360196  RH  078%=      5-min Rain = 0
KWT1 201116Z 18008KT 24/20 A2994 RMK A01 T02360196  RH  078%=      5-min Rain = 0
KWT1 201117Z 18009KT 24/20 A2994 RMK A01 T02360196  RH  078%=      5-min Rain = 0
KWT1 201118Z 18009KT 24/20 A2994 RMK A01 T02350196  RH  078%=      5-min Rain = 0
KWT1 201119Z 18009KT 24/20 A2994 RMK A01 T02360196  RH  079%=      5-min Rain = 0
KWT1 201120Z 18010KT 24/20 A2994 RMK A01 T02360196  RH  079%=      5-min Rain = 0
KWT1 201121Z 18010KT 24/20 A2994 RMK A01 T02360196  RH  079%=      5-min Rain = 0
KWT1 201122Z 18011KT 24/20 A2994 RMK A01 T02360197  RH  079%=      5-min Rain = 0
KWT1 201123Z 18009KT 24/20 A2994 RMK A01 T02360197  RH  079%=      5-min Rain = 0
KWT1 201124Z 18009KT 24/20 A2994 RMK A01 T02360197  RH  079%=      5-min Rain = 0
KWT1 201125Z 18009KT 24/20 A2994 RMK A01 T02360197  RH  079%=      5-min Rain = 0
KWT1 201126Z 18008KT 24/20 A2994 RMK A01 T02360197  RH  079%=      5-min Rain = 0
KWT1 201127Z 18009KT 24/20 A2994 RMK A01 T02350197  RH  079%=      5-min Rain = 0
KWT1 201128Z 18009KT 24/20 A2994 RMK A01 T02350197  RH  079%=      5-min Rain = 0
KWT1 201129Z 18009KT 24/20 A2994 RMK A01 T02350197  RH  079%=      5-min Rain = 0
KWT1 201130Z 18008KT 24/20 A2994 RMK A01 T02350197  RH  079%=      5-min Rain = 0
KWT1 201131Z 18009KT 24/20 A2994 RMK A01 T02350198  RH  079%=      5-min Rain = 0
KWT1 201132Z 19008KT 24/20 A2994 RMK A01 T02350198  RH  079%=      5-min Rain = 0
KWT1 201133Z 19008KT 24/20 A2994 RMK A01 T02350197  RH  079%=      5-min Rain = 0
KWT1 201134Z 18009KT 24/20 A2994 RMK A01 T02350197  RH  079%=      5-min Rain = 0
KWT1 201135Z 19010KT 24/20 A2994 RMK A01 T02350198  RH  080%=      5-min Rain = 0
KWT1 201136Z 19009KT 24/20 A2994 RMK A01 T02350198  RH  080%=      5-min Rain = 0
KWT1 201137Z 18008KT 23/20 A2994 RMK A01 T02340197  RH  080%=      5-min Rain = 0
KWT1 201138Z 18008KT 23/20 A2994 RMK A01 T02340197  RH  080%=      5-min Rain = 0
KWT1 201139Z 18008KT 23/20 A2994 RMK A01 T02340197  RH  080%=      5-min Rain = 0
KWT1 201140Z 18009KT 23/20 A2994 RMK A01 T02330197  RH  080%=      5-min Rain = 0
KWT1 201141Z 18009KT 23/20 A2994 RMK A01 T02330197  RH  080%=      5-min Rain = 0
KWT1 201142Z 18010KT 23/20 A2994 RMK A01 T02340198  RH  080%=      5-min Rain = 0
KWT1 201143Z 18008KT 23/20 A2994 RMK A01 T02330198  RH  080%=      5-min Rain = 0
KWT1 201144Z 18009KT 23/20 A2994 RMK A01 T02330197  RH  080%=      5-min Rain = 0
KWT1 201145Z 19008KT 23/20 A2994 RMK A01 T02340198  RH  080%=      5-min Rain = 0
KWT1 201146Z 19009KT 23/20 A2994 RMK A01 T02330198  RH  080%=      5-min Rain = 0
KWT1 201147Z 19008KT 23/20 A2994 RMK A01 T02340198  RH  080%=      5-min Rain = 0
KWT1 201148Z 19008KT 23/20 A2995 RMK A01 T02330197  RH  080%=      5-min Rain = 0
KWT1 201149Z 18008KT 23/20 A2994 RMK A01 T02330197  RH  080%=      5-min Rain = 0
KWT1 201150Z 18009KT 23/20 A2994 RMK A01 T02320197  RH  081%=      5-min Rain = 0
KWT1 201151Z 18008KT 23/20 A2994 RMK A01 T02320197  RH  081%=      5-min Rain = 0
KWT1 201152Z 18008KT 23/20 A2994 RMK A01 T02330198  RH  081%=      5-min Rain = 0
KWT1 201153Z 19008KT 23/20 A2994 RMK A01 T02330198  RH  081%=      5-min Rain = 0
KWT1 201154Z 18009KT 23/20 A2994 RMK A01 T02330197  RH  081%=      5-min Rain = 0
KWT1 201155Z 18009KT 23/20 A2994 RMK A01 T02330198  RH  081%=      5-min Rain = 0
KWT1 201156Z 18009KT 23/20 A2994 RMK A01 T02330198  RH  081%=      5-min Rain = 0
KWT1 201157Z 18008KT 23/20 A2995 RMK A01 T02330198  RH  081%=      5-min Rain = 0
KWT1 201158Z 19008KT 23/20 A2995 RMK A01 T02330197  RH  081%=      5-min Rain = 0
KWT1 201159Z 19008KT 23/20 A2995 RMK A01 T02320197  RH  081%=      5-min Rain = 0
KWT1 201200Z 18009KT 23/20 A2995 RMK A01 T02320197  RH  081%=      5-min Rain = 0
KWT1 201201Z 18008KT 23/20 A2995 RMK A01 T02320197  RH  081%=      5-min Rain = 0
KWT1 201202Z 18008KT 23/20 A2995 RMK A01 T02320197  RH  081%=      5-min Rain = 0
KWT1 201203Z 18007KT 23/20 A2995 RMK A01 T02320197  RH  081%=      5-min Rain = 0
KWT1 201204Z 18008KT 23/20 A2995 RMK A01 T02320197  RH  081%=      5-min Rain = 0
KWT1 201205Z 18010KT 23/20 A2995 RMK A01 T02320197  RH  081%=      5-min Rain = 0
KWT1 201206Z 18009KT 23/20 A2995 RMK A01 T02320197  RH  081%=      5-min Rain = 0
KWT1 201207Z 18009KT 23/20 A2995 RMK A01 T02320197  RH  081%=      5-min Rain = 0
KWT1 201208Z 18010KT 23/20 A2995 RMK A01 T02320197  RH  080%=      5-min Rain = 0
KWT1 201209Z 18008KT 23/20 A2995 RMK A01 T02330197  RH  080%=      5-min Rain = 0
KWT1 201210Z 18009KT 23/20 A2995 RMK A01 T02330197  RH  080%=      5-min Rain = 0
KWT1 201211Z 18009KT 23/20 A2995 RMK A01 T02330197  RH  080%=      5-min Rain = 0
KWT1 201212Z 18008KT 23/20 A2995 RMK A01 T02330197  RH  080%=      5-min Rain = 0
KWT1 201213Z 18009KT 23/20 A2995 RMK A01 T02330197  RH  080%=      5-min Rain = 0
KWT1 201214Z 18009KT 23/20 A2995 RMK A01 T02340197  RH  080%=      5-min Rain = 0
KWT1 201215Z 18009KT 23/20 A2995 RMK A01 T02340197  RH  080%=      5-min Rain = 0
KWT1 201216Z 18009KT 23/20 A2995 RMK A01 T02340197  RH  080%=      5-min Rain = 0
KWT1 201217Z 19008KT 24/20 A2995 RMK A01 T02350197  RH  079%=      5-min Rain = 0
KWT1 201218Z 18009KT 23/20 A2995 RMK A01 T02340197  RH  079%=      5-min Rain = 0
KWT1 201219Z 18009KT 23/20 A2995 RMK A01 T02340196  RH  079%=      5-min Rain = 0
KWT1 201220Z 18010G15KT 24/20 A2995 RMK A01 T02350197  RH  079%=      5-min Rain = 0
KWT1 201221Z 18010KT 24/20 A2995 RMK A01 T02350197  RH  079%=      5-min Rain = 0
KWT1 201222Z 18010KT 24/20 A2995 RMK A01 T02350196  RH  079%=      5-min Rain = 0
KWT1 201223Z 18008KT 24/20 A2995 RMK A01 T02350196  RH  079%=      5-min Rain = 0
KWT1 201224Z 18009KT 24/20 A2995 RMK A01 T02360196  RH  079%=      5-min Rain = 0
KWT1 201225Z 18009KT 24/20 A2995 RMK A01 T02360196  RH  078%=      5-min Rain = 0
KWT1 201226Z 18008KT 24/20 A2995 RMK A01 T02360196  RH  078%=      5-min Rain = 0
KWT1 201227Z 19009KT 24/20 A2995 RMK A01 T02370196  RH  078%=      5-min Rain = 0
KWT1 201228Z 18008KT 24/20 A2995 RMK A01 T02370196  RH  078%=      5-min Rain = 0
KWT1 201229Z 18008KT 24/20 A2995 RMK A01 T02370196  RH  078%=      5-min Rain = 0
KWT1 201230Z 18009KT 24/20 A2995 RMK A01 T02370196  RH  078%=      5-min Rain = 0
KWT1 201231Z 19009KT 24/20 A2995 RMK A01 T02370197  RH  078%=      5-min Rain = 0
KWT1 201232Z 19007KT 24/20 A2995 RMK A01 T02370196  RH  078%=      5-min Rain = 0
KWT1 201233Z 18009KT 24/20 A2995 RMK A01 T02370196  RH  078%=      5-min Rain = 0
KWT1 201234Z 19009KT 24/20 A2995 RMK A01 T02370196  RH  078%=      5-min Rain = 0
KWT1 201235Z 18008KT 24/20 A2995 RMK A01 T02370196  RH  078%=      5-min Rain = 0
KWT1 201236Z 19009KT 24/20 A2995 RMK A01 T02380196  RH  078%=      5-min Rain = 0
KWT1 201237Z 19008KT 24/20 A2995 RMK A01 T02380197  RH  078%=      5-min Rain = 0
KWT1 201238Z 19009KT 24/20 A2995 RMK A01 T02380197  RH  078%=      5-min Rain = 0
KWT1 201239Z 19010KT 24/20 A2995 RMK A01 T02380197  RH  077%=      5-min Rain = 0
KWT1 201240Z 19007KT 24/20 A2995 RMK A01 T02390197  RH  077%=      5-min Rain = 0
KWT1 201241Z 19008KT 24/20 A2995 RMK A01 T02390197  RH  077%=      5-min Rain = 0
KWT1 201242Z 18008KT 24/20 A2995 RMK A01 T02390197  RH  077%=      5-min Rain = 0
KWT1 201243Z 18008KT 24/20 A2995 RMK A01 T02390197  RH  077%=      5-min Rain = 0
KWT1 201244Z 19008KT 24/20 A2995 RMK A01 T02400197  RH  077%=      5-min Rain = 0
KWT1 201245Z 18009KT 24/20 A2995 RMK A01 T02400197  RH  077%=      5-min Rain = 0
KWT1 201246Z 19010KT 24/20 A2995 RMK A01 T02400197  RH  077%=      5-min Rain = 0
KWT1 201247Z 19011KT 24/20 A2995 RMK A01 T02410197  RH  076%=      5-min Rain = 0
KWT1 201248Z 18009KT 24/20 A2995 RMK A01 T02410197  RH  076%=      5-min Rain = 0
KWT1 201249Z 19008KT 24/20 A2995 RMK A01 T02410197  RH  077%=      5-min Rain = 0
KWT1 201250Z 18009KT 24/20 A2995 RMK A01 T02410197  RH  077%=      5-min Rain = 0
KWT1 201251Z 18009KT 24/20 A2995 RMK A01 T02410197  RH  076%=      5-min Rain = 0
KWT1 201252Z 19009KT 24/20 A2995 RMK A01 T02410197  RH  076%=      5-min Rain = 0
KWT1 201253Z 18008KT 24/20 A2995 RMK A01 T02420197  RH  076%=      5-min Rain = 0
KWT1 201254Z 18010KT 24/20 A2995 RMK A01 T02420197  RH  076%=      5-min Rain = 0
KWT1 201255Z 18010KT 24/20 A2995 RMK A01 T02420198  RH  076%=      5-min Rain = 0
KWT1 201256Z 18008KT 24/20 A2995 RMK A01 T02430197  RH  076%=      5-min Rain = 0
KWT1 201257Z 19009KT 24/20 A2996 RMK A01 T02430197  RH  076%=      5-min Rain = 0
KWT1 201258Z 18012KT 24/20 A2996 RMK A01 T02430197  RH  076%=      5-min Rain = 0
KWT1 201259Z 18010KT 24/20 A2996 RMK A01 T02440198  RH  075%=      5-min Rain = 0
KWT1 201300Z 18011KT 24/20 A2996 RMK A01 T02440197  RH  075%=      5-min Rain = 0
KWT1 201301Z 18012KT 24/20 A2996 RMK A01 T02440197  RH  075%=      5-min Rain = 0
KWT1 201302Z 18011KT 25/20 A2996 RMK A01 T02450198  RH  075%=      5-min Rain = 0
KWT1 201303Z 18009KT 25/20 A2996 RMK A01 T02450197  RH  075%=      5-min Rain = 0
KWT1 201304Z 18011KT 25/20 A2996 RMK A01 T02450198  RH  075%=      5-min Rain = 0
KWT1 201305Z 18008KT 25/20 A2996 RMK A01 T02460198  RH  075%=      5-min Rain = 0
KWT1 201306Z 18011KT 25/20 A2996 RMK A01 T02460198  RH  074%=      5-min Rain = 0
KWT1 201307Z 19010KT 25/20 A2995 RMK A01 T02470198  RH  074%=      5-min Rain = 0
KWT1 201308Z 19011KT 25/20 A2996 RMK A01 T02470198  RH  074%=      5-min Rain = 0
KWT1 201309Z 19012KT 25/20 A2996 RMK A01 T02470198  RH  074%=      5-min Rain = 0
KWT1 201310Z 18011KT 25/20 A2995 RMK A01 T02480198  RH  074%=      5-min Rain = 0
KWT1 201311Z 18011KT 25/20 A2995 RMK A01 T02480198  RH  074%=      5-min Rain = 0
KWT1 201312Z 18010KT 25/20 A2995 RMK A01 T02470198  RH  074%=      5-min Rain = 0
KWT1 201313Z 18013KT 25/20 A2995 RMK A01 T02480197  RH  073%=      5-min Rain = 0
KWT1 201314Z 18013KT 25/20 A2995 RMK A01 T02480197  RH  073%=      5-min Rain = 0
KWT1 201315Z 18011KT 25/20 A2995 RMK A01 T02480197  RH  073%=      5-min Rain = 0
KWT1 201316Z 18013KT 25/20 A2995 RMK A01 T02490197  RH  073%=      5-min Rain = 0
KWT1 201317Z 19013KT 25/20 A2995 RMK A01 T02490196  RH  073%=      5-min Rain = 0
KWT1 201318Z 19014KT 25/20 A2995 RMK A01 T02480196  RH  073%=      5-min Rain = 0
KWT1 201319Z 19014KT 25/20 A2995 RMK A01 T02480196  RH  073%=      5-min Rain = 0
KWT1 201320Z 18013KT 25/20 A2995 RMK A01 T02490197  RH  073%=      5-min Rain = 0
KWT1 201321Z 18015KT 25/20 A2995 RMK A01 T02490196  RH  073%=      5-min Rain = 0
KWT1 201322Z 18013KT 25/20 A2995 RMK A01 T02490196  RH  072%=      5-min Rain = 0
KWT1 201323Z 18013G18KT 25/20 A2996 RMK A01 T02500197  RH  072%=      5-min Rain = 0
KWT1 201324Z 19013G19KT 25/20 A2996 RMK A01 T02510196  RH  072%=      5-min Rain = 0
KWT1 201325Z 19012G17KT 25/20 A2996 RMK A01 T02510196  RH  072%=      5-min Rain = 0
KWT1 201326Z 18014KT 25/20 A2996 RMK A01 T02510196  RH  072%=      5-min Rain = 0
KWT1 201327Z 18014KT 25/20 A2996 RMK A01 T02510197  RH  072%=      5-min Rain = 0
KWT1 201328Z 18013KT 25/20 A2996 RMK A01 T02510197  RH  072%=      5-min Rain = 0
KWT1 201329Z 19014KT 25/20 A2996 RMK A01 T02520197  RH  072%=      5-min Rain = 0
KWT1 201330Z 18014KT 25/20 A2996 RMK A01 T02520196  RH  071%=      5-min Rain = 0
KWT1 201331Z 18010KT 25/20 A2996 RMK A01 T02520197  RH  071%=      5-min Rain = 0
KWT1 201332Z 18011KT 25/20 A2996 RMK A01 T02520197  RH  071%=      5-min Rain = 0
KWT1 201333Z 19014KT 25/20 A2996 RMK A01 T02540197  RH  071%=      5-min Rain = 0
KWT1 201334Z 18014KT 25/20 A2996 RMK A01 T02540196  RH  070%=      5-min Rain = 0
KWT1 201335Z 18016KT 25/20 A2996 RMK A01 T02540196  RH  070%=      5-min Rain = 0
KWT1 201336Z 19012G18KT 25/20 A2996 RMK A01 T02540196  RH  070%=      5-min Rain = 0
KWT1 201337Z 18012KT 25/20 A2996 RMK A01 T02540197  RH  071%=      5-min Rain = 0
KWT1 201338Z 18015KT 26/20 A2996 RMK A01 T02550196  RH  070%=      5-min Rain = 0
KWT1 201339Z 19014KT 26/20 A2996 RMK A01 T02550197  RH  070%=      5-min Rain = 0
KWT1 201340Z 18013KT 25/20 A2996 RMK A01 T02540196  RH  070%=      5-min Rain = 0
KWT1 201341Z 18015KT 26/20 A2996 RMK A01 T02550196  RH  070%=      5-min Rain = 0
KWT1 201342Z 18014KT 26/20 A2996 RMK A01 T02550197  RH  070%=      5-min Rain = 0
KWT1 201343Z 18012KT 26/20 A2996 RMK A01 T02550197  RH  070%=      5-min Rain = 0
KWT1 201344Z 17013KT 26/20 A2996 RMK A01 T02560197  RH  070%=      5-min Rain = 0
KWT1 201345Z 18013G18KT 26/20 A2996 RMK A01 T02570197  RH  069%=      5-min Rain = 0
KWT1 201346Z 18009KT 26/20 A2996 RMK A01 T02580197  RH  069%=      5-min Rain = 0
KWT1 201347Z 18012G18KT 26/20 A2996 RMK A01 T02590198  RH  069%=      5-min Rain = 0
KWT1 201348Z 18015KT 26/20 A2996 RMK A01 T02600197  RH  068%=      5-min Rain = 0
KWT1 201349Z 18014KT 26/20 A2996 RMK A01 T02590197  RH  069%=      5-min Rain = 0
KWT1 201350Z 18017KT 26/20 A2996 RMK A01 T02590197  RH  068%=      5-min Rain = 0
KWT1 201351Z 18012KT 26/20 A2996 RMK A01 T02580196  RH  069%=      5-min Rain = 0
KWT1 201352Z 19012KT 26/20 A2996 RMK A01 T02580197  RH  069%=      5-min Rain = 0
KWT1 201353Z 18014G20KT 26/20 A2996 RMK A01 T02590197  RH  069%=      5-min Rain = 0
KWT1 201354Z 18013KT 26/20 A2996 RMK A01 T02590197  RH  069%=      5-min Rain = 0
KWT1 201355Z 18014KT 26/20 A2996 RMK A01 T02590197  RH  069%=      5-min Rain = 0
KWT1 201356Z 18015KT 26/20 A2996 RMK A01 T02590197  RH  069%=      5-min Rain = 0
KWT1 201357Z 17013KT 26/20 A2996 RMK A01 T02580196  RH  068%=      5-min Rain = 0
KWT1 201358Z 19013KT 26/20 A2996 RMK A01 T02600197  RH  068%=      5-min Rain = 0
KWT1 201359Z 19014KT 26/20 A2996 RMK A01 T02610198  RH  068%=      5-min Rain = 0
KWT1 201400Z 18014KT 26/20 A2996 RMK A01 T02620197  RH  067%=      5-min Rain = 0
KWT1 201401Z 17013KT 26/20 A2996 RMK A01 T02610197  RH  068%=      5-min Rain = 0
KWT1 201402Z 17013KT 26/20 A2996 RMK A01 T02610197  RH  068%=      5-min Rain = 0
KWT1 201403Z 18012KT 26/20 A2996 RMK A01 T02610197  RH  068%=      5-min Rain = 0
KWT1 201404Z 18016KT 26/20 A2996 RMK A01 T02610197  RH  067%=      5-min Rain = 0
KWT1 201405Z 17014KT 26/20 A2996 RMK A01 T02610197  RH  068%=      5-min Rain = 0
KWT1 201406Z 18011KT 26/20 A2996 RMK A01 T02610197  RH  068%=      5-min Rain = 0
KWT1 201407Z 18012KT 26/20 A2996 RMK A01 T02630199  RH  068%=      5-min Rain = 0
KWT1 201408Z 19013KT 27/20 A2996 RMK A01 T02650198  RH  067%=      5-min Rain = 0
KWT1 201409Z 19013KT 26/20 A2996 RMK A01 T02640197  RH  066%=      5-min Rain = 0
KWT1 201410Z 19013KT 26/20 A2996 RMK A01 T02640197  RH  067%=      5-min Rain = 0
KWT1 201411Z 20013G18KT 26/20 A2996 RMK A01 T02640197  RH  066%=      5-min Rain = 0
KWT1 201412Z 20015KT 27/20 A2996 RMK A01 T02650197  RH  066%=      5-min Rain = 0
KWT1 201413Z 19014KT 26/20 A2996 RMK A01 T02640197  RH  066%=      5-min Rain = 0
KWT1 201414Z 18013KT 26/20 A2996 RMK A01 T02630197  RH  067%=      5-min Rain = 0
KWT1 201415Z 18013KT 27/20 A2996 RMK A01 T02650197  RH  067%=      5-min Rain = 0
KWT1 201416Z 18016KT 27/20 A2996 RMK A01 T02650197  RH  066%=      5-min Rain = 0
KWT1 201417Z 18012KT 26/20 A2996 RMK A01 T02640197  RH  066%=      5-min Rain = 0
KWT1 201418Z 17014KT 26/20 A2996 RMK A01 T02640196  RH  066%=      5-min Rain = 0
KWT1 201419Z 18014G19KT 26/20 A2996 RMK A01 T02640197  RH  066%=      5-min Rain = 0
KWT1 201420Z 18016KT 27/20 A2996 RMK A01 T02650197  RH  066%=      5-min Rain = 0
KWT1 201421Z 17014KT 27/20 A2996 RMK A01 T02660197  RH  066%=      5-min Rain = 0
KWT1 201422Z 17014G19KT 27/20 A2996 RMK A01 T02660197  RH  066%=      5-min Rain = 0
KWT1 201423Z 18014KT 27/20 A2996 RMK A01 T02670197  RH  065%=      5-min Rain = 0
KWT1 201424Z 18012KT 27/20 A2996 RMK A01 T02660197  RH  066%=      5-min Rain = 0
KWT1 201425Z 18012G17KT 27/20 A2996 RMK A01 T02670198  RH  066%=      5-min Rain = 0
KWT1 201426Z 18015KT 27/20 A2996 RMK A01 T02680197  RH  065%=      5-min Rain = 0
KWT1 201427Z 17014KT 27/20 A2996 RMK A01 T02680197  RH  065%=      5-min Rain = 0
KWT1 201428Z 18016KT 27/20 A2996 RMK A01 T02680197  RH  065%=      5-min Rain = 0
KWT1 201429Z 17017KT 27/20 A2996 RMK A01 T02680196  RH  065%=      5-min Rain = 0
KWT1 201430Z 18014KT 27/20 A2996 RMK A01 T02670196  RH  065%=      5-min Rain = 0
KWT1 201431Z 19012KT 27/20 A2996 RMK A01 T02670196  RH  065%=      5-min Rain = 0
KWT1 201432Z 18011KT 27/20 A2996 RMK A01 T02680198  RH  065%=      5-min Rain = 0
KWT1 201433Z 18013G18KT 27/20 A2996 RMK A01 T02710199  RH  065%=      5-min Rain = 0
KWT1 201434Z 18014KT 27/20 A2996 RMK A01 T02720198  RH  064%=      5-min Rain = 0
KWT1 201435Z 19013KT 27/20 A2996 RMK A01 T02710197  RH  064%=      5-min Rain = 0
KWT1 201436Z 18013KT 27/20 A2996 RMK A01 T02710197  RH  064%=      5-min Rain = 0
KWT1 201437Z 18013KT 27/20 A2996 RMK A01 T02710197  RH  064%=      5-min Rain = 0
KWT1 201438Z 19010KT 27/20 A2996 RMK A01 T02720198  RH  064%=      5-min Rain = 0
KWT1 201439Z 19010KT 28/20 A2996 RMK A01 T02750200  RH  064%=      5-min Rain = 0
KWT1 201440Z 18009KT 28/20 A2996 RMK A01 T02790200  RH  062%=      5-min Rain = 0
KWT1 201441Z 18011KT 28/20 A2996 RMK A01 T02790199  RH  062%=      5-min Rain = 0
KWT1 201442Z 18012KT 28/20 A2996 RMK A01 T02790198  RH  061%=      5-min Rain = 0
KWT1 201443Z 18014KT 28/20 A2996 RMK A01 T02790197  RH  061%=      5-min Rain = 0
KWT1 201444Z 17015G20KT 28/20 A2996 RMK A01 T02760196  RH  062%=      5-min Rain = 0
KWT1 201445Z 17016KT 28/20 A2996 RMK A01 T02750196  RH  062%=      5-min Rain = 0
KWT1 201446Z 19016KT 28/20 A2996 RMK A01 T02750195  RH  062%=      5-min Rain = 0
KWT1 201447Z 19015KT 27/20 A2996 RMK A01 T02740195  RH  062%=      5-min Rain = 0
KWT1 201448Z 18015KT 27/20 A2996 RMK A01 T02740195  RH  062%=      5-min Rain = 0
KWT1 201449Z 19012G18KT 28/20 A2996 RMK A01 T02750195  RH  062%=      5-min Rain = 0
KWT1 201450Z 19013G18KT 28/20 A2996 RMK A01 T02770196  RH  061%=      5-min Rain = 0
KWT1 201451Z 20014KT 28/20 A2996 RMK A01 T02780196  RH  061%=      5-min Rain = 0
KWT1 201452Z 19014KT 28/20 A2996 RMK A01 T02780197  RH  061%=      5-min Rain = 0
KWT1 201453Z 20014KT 28/20 A2996 RMK A01 T02780196  RH  061%=      5-min Rain = 0
KWT1 201454Z 19013KT 28/20 A2996 RMK A01 T02780195  RH  061%=      5-min Rain = 0
KWT1 201455Z 18011KT 28/20 A2996 RMK A01 T02790197  RH  061%=      5-min Rain = 0
KWT1 201456Z 18011G16KT 28/20 A2996 RMK A01 T02810198  RH  060%=      5-min Rain = 0
KWT1 201457Z 18014KT 28/20 A2996 RMK A01 T02820197  RH  060%=      5-min Rain = 0
KWT1 201458Z 18012G17KT 28/20 A2996 RMK A01 T02800197  RH  060%=      5-min Rain = 0
KWT1 201459Z 18013KT 28/20 A2996 RMK A01 T02800197  RH  061%=      5-min Rain = 0
KWT1 201500Z 18011KT 28/20 A2996 RMK A01 T02800198  RH  061%=      5-min Rain = 0
KWT1 201501Z 18014KT 28/20 A2996 RMK A01 T02810197  RH  061%=      5-min Rain = 0
KWT1 201502Z 18012KT 28/20 A2996 RMK A01 T02800197  RH  061%=      5-min Rain = 0
KWT1 201503Z 19010KT 28/20 A2996 RMK A01 T02820198  RH  060%=      5-min Rain = 0
KWT1 201504Z 17010KT 29/20 A2996 RMK A01 T02850198  RH  059%=      5-min Rain = 0
KWT1 201505Z 18013G18KT 29/20 A2996 RMK A01 T02870197  RH  058%=      5-min Rain = 0
KWT1 201506Z 18014KT 29/20 A2996 RMK A01 T02870196  RH  058%=      5-min Rain = 0
KWT1 201507Z 18014KT 29/20 A2996 RMK A01 T02850196  RH  058%=      5-min Rain = 0
KWT1 201508Z 19014KT 28/20 A2996 RMK A01 T02840195  RH  059%=      5-min Rain = 0
KWT1 201509Z 18014KT 28/20 A2996 RMK A01 T02820196  RH  060%=      5-min Rain = 0
KWT1 201510Z 18014KT 28/20 A2996 RMK A01 T02820195  RH  059%=      5-min Rain = 0
KWT1 201511Z 18012G17KT 28/20 A2996 RMK A01 T02840196  RH  059%=      5-min Rain = 0
KWT1 201512Z 18012KT 29/20 A2996 RMK A01 T02850196  RH  059%=      5-min Rain = 0
KWT1 201513Z 18014KT 29/20 A2996 RMK A01 T02870195  RH  057%=      5-min Rain = 0
KWT1 201514Z 18013KT 29/20 A2996 RMK A01 T02860195  RH  058%=      5-min Rain = 0
KWT1 201515Z 19014KT 29/20 A2996 RMK A01 T02850196  RH  058%=      5-min Rain = 0
KWT1 201516Z 18010KT 29/20 A2996 RMK A01 T02850196  RH  058%=      5-min Rain = 0
KWT1 201517Z 18013G19KT 29/20 A2996 RMK A01 T02850195  RH  058%=      5-min Rain = 0
KWT1 201518Z 18015KT 29/19 A2996 RMK A01 T02860194  RH  058%=      5-min Rain = 0
KWT1 201519Z 18017KT 29/19 A2996 RMK A01 T02850193  RH  058%=      5-min Rain = 0
KWT1 201520Z 18016KT 28/19 A2996 RMK A01 T02840193  RH  058%=      5-min Rain = 0
KWT1 201521Z 18012KT 28/19 A2996 RMK A01 T02830193  RH  058%=      5-min Rain = 0
KWT1 201522Z 19012KT 28/20 A2996 RMK A01 T02840195  RH  059%=      5-min Rain = 0
KWT1 201523Z 18012G17KT 29/20 A2996 RMK A01 T02880197  RH  058%=      5-min Rain = 0
KWT1 201524Z 18014KT 29/20 A2996 RMK A01 T02900195  RH  056%=      5-min Rain = 0
KWT1 201525Z 18011KT 29/20 A2996 RMK A01 T02900195  RH  057%=      5-min Rain = 0
KWT1 201526Z 18014KT 29/19 A2995 RMK A01 T02920194  RH  055%=      5-min Rain = 0
KWT1 201527Z 17016KT 29/19 A2995 RMK A01 T02920193  RH  055%=      5-min Rain = 0
KWT1 201528Z 18014KT 29/19 A2995 RMK A01 T02900194  RH  056%=      5-min Rain = 0
KWT1 201529Z 17012KT 29/20 A2996 RMK A01 T02880195  RH  057%=      5-min Rain = 0
KWT1 201530Z 17011KT 29/20 A2996 RMK A01 T02890195  RH  057%=      5-min Rain = 0
KWT1 201531Z 18012G17KT 29/20 A2996 RMK A01 T02910196  RH  056%=      5-min Rain = 0
KWT1 201532Z 19012KT 29/20 A2995 RMK A01 T02920195  RH  056%=      5-min Rain = 0
KWT1 201533Z 18011KT 29/20 A2995 RMK A01 T02930196  RH  056%=      5-min Rain = 0
KWT1 201534Z 19011G19KT 30/20 A2995 RMK A01 T02950197  RH  055%=      5-min Rain = 0
KWT1 201535Z 18010KT 30/20 A2995 RMK A01 T02980197  RH  055%=      5-min Rain = 0
KWT1 201536Z 18012KT 30/20 A2995 RMK A01 T02990196  RH  054%=      5-min Rain = 0
KWT1 201537Z 18012KT 30/20 A2995 RMK A01 T02980196  RH  054%=      5-min Rain = 0
KWT1 201538Z 17015KT 30/20 A2995 RMK A01 T02980196  RH  054%=      5-min Rain = 0
KWT1 201539Z 17012KT 30/20 A2995 RMK A01 T02960195  RH  054%=      5-min Rain = 0
KWT1 201540Z 18013G18KT 30/20 A2995 RMK A01 T02950195  RH  055%=      5-min Rain = 0
KWT1 201541Z 18014KT 30/19 A2995 RMK A01 T02950194  RH  055%=      5-min Rain = 0
KWT1 201542Z 18014KT 30/19 A2995 RMK A01 T02950193  RH  054%=      5-min Rain = 0
KWT1 201543Z 18015KT 30/19 A2995 RMK A01 T02950192  RH  054%=      5-min Rain = 0
KWT1 201544Z 19016KT 29/19 A2995 RMK A01 T02940193  RH  055%=      5-min Rain = 0
KWT1 201545Z 18015KT 29/19 A2995 RMK A01 T02940193  RH  055%=      5-min Rain = 0
KWT1 201546Z 19013KT 29/19 A2995 RMK A01 T02930194  RH  055%=      5-min Rain = 0
KWT1 201547Z 19012KT 29/20 A2995 RMK A01 T02940195  RH  055%=      5-min Rain = 0
KWT1 201548Z 19013KT 30/19 A2995 RMK A01 T02950194  RH  055%=      5-min Rain = 0
KWT1 201549Z 18012KT 30/19 A2995 RMK A01 T02970194  RH  054%=      5-min Rain = 0
KWT1 201550Z 18012G17KT 30/20 A2995 RMK A01 T03000195  RH  053%=      5-min Rain = 0
KWT1 201551Z 18013KT 30/19 A2995 RMK A01 T03010193  RH  052%=      5-min Rain = 0
KWT1 201552Z 18013KT 30/19 A2995 RMK A01 T03000194  RH  053%=      5-min Rain = 0
KWT1 201553Z 17013KT 30/19 A2995 RMK A01 T02990194  RH  053%=      5-min Rain = 0
KWT1 201554Z 17014KT 30/19 A2995 RMK A01 T03000194  RH  053%=      5-min Rain = 0
KWT1 201555Z 18011KT 30/19 A2995 RMK A01 T02980193  RH  053%=      5-min Rain = 0
KWT1 201556Z 17013KT 30/20 A2995 RMK A01 T02970195  RH  054%=      5-min Rain = 0
KWT1 201557Z 17010KT 30/20 A2995 RMK A01 T03000196  RH  054%=      5-min Rain = 0
KWT1 201558Z 17011G16KT 30/20 A2995 RMK A01 T03030197  RH  053%=      5-min Rain = 0
KWT1 201559Z 19012KT 31/20 A2995 RMK A01 T03050196  RH  052%=      5-min Rain = 0
KWT1 201600Z 19012KT 31/20 A2995 RMK A01 T03060196  RH  052%=      5-min Rain = 0
KWT1 201601Z 20010KT 30/19 A2995 RMK A01 T03030194  RH  052%=      5-min Rain = 0
KWT1 201602Z 18010KT 30/20 A2995 RMK A01 T03040196  RH  053%=      5-min Rain = 0
KWT1 201603Z 17011G16KT 31/20 A2995 RMK A01 T03050196  RH  052%=      5-min Rain = 0
KWT1 201604Z 18011KT 31/20 A2995 RMK A01 T03060196  RH  052%=      5-min Rain = 0
KWT1 201605Z 19010KT 31/20 A2995 RMK A01 T03060195  RH  052%=      5-min Rain = 0
KWT1 201606Z 18012G17KT 30/20 A2995 RMK A01 T03040195  RH  052%=      5-min Rain = 0
KWT1 201607Z 18014KT 31/20 A2995 RMK A01 T03050195  RH  052%=      5-min Rain = 0
KWT1 201608Z 18012KT 31/19 A2995 RMK A01 T03060193  RH  051%=      5-min Rain = 0
KWT1 201609Z 19012KT 30/19 A2995 RMK A01 T03040193  RH  052%=      5-min Rain = 0
KWT1 201610Z 20011KT 30/19 A2995 RMK A01 T03040194  RH  052%=      5-min Rain = 0
KWT1 201611Z 17011KT 31/20 A2995 RMK A01 T03050195  RH  052%=      5-min Rain = 0
KWT1 201612Z 17013G18KT 31/20 A2995 RMK A01 T03080196  RH  051%=      5-min Rain = 0
KWT1 201613Z 17013G18KT 31/20 A2995 RMK A01 T03090195  RH  051%=      5-min Rain = 0
KWT1 201614Z 17014KT 31/19 A2995 RMK A01 T03090193  RH  050%=      5-min Rain = 0
KWT1 201615Z 18012KT 31/19 A2995 RMK A01 T03080193  RH  050%=      5-min Rain = 0
KWT1 201616Z 19011KT 31/19 A2995 RMK A01 T03070194  RH  051%=      5-min Rain = 0
KWT1 201617Z 18013KT 31/19 A2995 RMK A01 T03090194  RH  050%=      5-min Rain = 0
KWT1 201618Z 18011KT 31/19 A2995 RMK A01 T03100193  RH  050%=      5-min Rain = 0
KWT1 201619Z 17011KT 31/20 A2995 RMK A01 T03100195  RH  050%=      5-min Rain = 0
KWT1 201620Z 17013KT 31/20 A2995 RMK A01 T03130195  RH  050%=      5-min Rain = 0
KWT1 201621Z 18014KT 31/20 A2995 RMK A01 T03110196  RH  050%=      5-min Rain = 0
KWT1 201622Z 19012KT 31/19 A2995 RMK A01 T03090194  RH  050%=      5-min Rain = 0
KWT1 201623Z 19009KT 31/19 A2995 RMK A01 T03070194  RH  051%=      5-min Rain = 0
KWT1 201624Z 18014KT 31/20 A2995 RMK A01 T03100196  RH  051%=      5-min Rain = 0
KWT1 201625Z 18015KT 31/19 A2995 RMK A01 T03120194  RH  049%=      5-min Rain = 0
KWT1 201626Z 18013KT 31/19 A2995 RMK A01 T03110194  RH  050%=      5-min Rain = 0
KWT1 201627Z 19011G16KT 31/19 A2995 RMK A01 T03090193  RH  050%=      5-min Rain = 0
KWT1 201628Z 19012KT 31/19 A2995 RMK A01 T03090193  RH  050%=      5-min Rain = 0
KWT1 201629Z 17016KT 31/19 A2995 RMK A01 T03100193  RH  050%=      5-min Rain = 0
KWT1 201630Z 19015KT 31/19 A2995 RMK A01 T03100192  RH  049%=      5-min Rain = 0
KWT1 201631Z 18013KT 31/19 A2995 RMK A01 T03090193  RH  050%=      5-min Rain = 0
KWT1 201632Z 19010KT 31/19 A2995 RMK A01 T03120193  RH  049%=      5-min Rain = 0
KWT1 201633Z 19009KT 31/19 A2995 RMK A01 T03130193  RH  049%=      5-min Rain = 0
KWT1 201634Z 19012KT 31/19 A2995 RMK A01 T03140194  RH  049%=      5-min Rain = 0
KWT1 201635Z 18012KT 31/19 A2995 RMK A01 T03130194  RH  049%=      5-min Rain = 0
KWT1 201636Z 17011KT 31/20 A2995 RMK A01 T03130195  RH  049%=      5-min Rain = 0
KWT1 201637Z 17014KT 32/20 A2995 RMK A01 T03150196  RH  049%=      5-min Rain = 0
KWT1 201638Z 17012KT 32/20 A2995 RMK A01 T03150196  RH  049%=      5-min Rain = 0
KWT1 201639Z 16014KT 32/20 A2995 RMK A01 T03150195  RH  049%=      5-min Rain = 0
KWT1 201640Z 17010KT 32/20 A2995 RMK A01 T03150195  RH  049%=      5-min Rain = 0
KWT1 201641Z 18012KT 32/20 A2995 RMK A01 T03150195  RH  049%=      5-min Rain = 0
KWT1 201642Z 17013KT 31/19 A2995 RMK A01 T03140194  RH  049%=      5-min Rain = 0
KWT1 201643Z 19014KT 32/19 A2995 RMK A01 T03150193  RH  048%=      5-min Rain = 0
KWT1 201644Z 20012KT 32/19 A2995 RMK A01 T03160192  RH  048%=      5-min Rain = 0
KWT1 201645Z 20012KT 32/19 A2995 RMK A01 T03150193  RH  048%=      5-min Rain = 0
KWT1 201646Z 18013KT 32/20 A2995 RMK A01 T03180195  RH  048%=      5-min Rain = 0
KWT1 201647Z 18013G18KT 32/20 A2995 RMK A01 T03220195  RH  047%=      5-min Rain = 0
KWT1 201648Z 17011KT 32/19 A2995 RMK A01 T03210193  RH  047%=      5-min Rain = 0
KWT1 201649Z 19012KT 32/20 A2995 RMK A01 T03220195  RH  047%=      5-min Rain = 0
KWT1 201650Z 18011KT 32/19 A2995 RMK A01 T03220194  RH  047%=      5-min Rain = 0
KWT1 201651Z 16011KT 32/19 A2995 RMK A01 T03220194  RH  047%=      5-min Rain = 0
KWT1 201652Z 16009KT 32/19 A2995 RMK A01 T03210193  RH  047%=      5-min Rain = 0
KWT1 201653Z 17010G15KT 32/19 A2995 RMK A01 T03200193  RH  047%=      5-min Rain = 0
KWT1 201654Z 17013G18KT 32/19 A2995 RMK A01 T03230193  RH  046%=      5-min Rain = 0
KWT1 201655Z 16016KT 32/19 A2995 RMK A01 T03240193  RH  046%=      5-min Rain = 0
KWT1 201656Z 16015KT 32/19 A2995 RMK A01 T03240191  RH  045%=      5-min Rain = 0
KWT1 201657Z 18013KT 32/19 A2995 RMK A01 T03220191  RH  046%=      5-min Rain = 0
KWT1 201658Z 18012KT 32/19 A2995 RMK A01 T03210191  RH  046%=      5-min Rain = 0
KWT1 201659Z 18011KT 32/19 A2995 RMK A01 T03230192  RH  046%=      5-min Rain = 0
KWT1 201700Z 17011G16KT 32/19 A2995 RMK A01 T03230194  RH  047%=      5-min Rain = 0
KWT1 201701Z 18014G21KT 32/19 A2994 RMK A01 T03230194  RH  047%=      5-min Rain = 0
KWT1 201702Z 17017KT 32/19 A2994 RMK A01 T03220193  RH  046%=      5-min Rain = 0
KWT1 201703Z 19017KT 32/19 A2994 RMK A01 T03230192  RH  046%=      5-min Rain = 0
KWT1 201704Z 18013KT 32/19 A2994 RMK A01 T03230192  RH  046%=      5-min Rain = 0
KWT1 201705Z 16010KT 32/19 A2994 RMK A01 T03220194  RH  047%=      5-min Rain = 0
KWT1 201706Z 17011KT 33/19 A2994 RMK A01 T03250193  RH  046%=      5-min Rain = 0
KWT1 201707Z 17013KT 32/19 A2994 RMK A01 T03240193  RH  046%=      5-min Rain = 0
KWT1 201708Z 17015KT 32/19 A2994 RMK A01 T03240192  RH  046%=      5-min Rain = 0
KWT1 201709Z 17012G17KT 32/19 A2994 RMK A01 T03230193  RH  046%=      5-min Rain = 0
KWT1 201710Z 18012KT 32/19 A2994 RMK A01 T03240194  RH  046%=      5-min Rain = 0
KWT1 201711Z 17012G18KT 33/19 A2994 RMK A01 T03270194  RH  046%=      5-min Rain = 0
KWT1 201712Z 17016G22KT 33/19 A2994 RMK A01 T03270193  RH  045%=      5-min Rain = 0
KWT1 201713Z 17014KT 33/19 A2994 RMK A01 T03280191  RH  044%=      5-min Rain = 0
KWT1 201714Z 17011KT 33/19 A2994 RMK A01 T03290191  RH  044%=      5-min Rain = 0
KWT1 201715Z 18012KT 33/19 A2994 RMK A01 T03300191  RH  044%=      5-min Rain = 0
KWT1 201716Z 16013G18KT 33/19 A2994 RMK A01 T03280193  RH  045%=      5-min Rain = 0
KWT1 201717Z 16013KT 33/19 A2994 RMK A01 T03290194  RH  045%=      5-min Rain = 0
KWT1 201718Z 18011KT 33/19 A2994 RMK A01 T03280192  RH  045%=      5-min Rain = 0
KWT1 201719Z 19012KT 33/19 A2994 RMK A01 T03250192  RH  045%=      5-min Rain = 0
KWT1 201720Z 18013KT 33/19 A2994 RMK A01 T03260193  RH  045%=      5-min Rain = 0
KWT1 201721Z 17012KT 33/19 A2994 RMK A01 T03270192  RH  045%=      5-min Rain = 0
KWT1 201722Z 17009G15KT 33/19 A2994 RMK A01 T03270193  RH  045%=      5-min Rain = 0
KWT1 201723Z 17016G21KT 33/19 A2994 RMK A01 T03320194  RH  044%=      5-min Rain = 0
KWT1 201724Z 18015KT 33/19 A2994 RMK A01 T03340191  RH  043%=      5-min Rain = 0
KWT1 201725Z 19016KT 33/19 A2994 RMK A01 T03310190  RH  043%=      5-min Rain = 0
KWT1 201726Z 19012KT 33/19 A2994 RMK A01 T03300190  RH  044%=      5-min Rain = 0
KWT1 201727Z 18013KT 33/19 A2994 RMK A01 T03300190  RH  044%=      5-min Rain = 0
KWT1 201728Z 18015KT 33/19 A2994 RMK A01 T03320188  RH  043%=      5-min Rain = 0
KWT1 201729Z 18012KT 33/19 A2994 RMK A01 T03330187  RH  042%=      5-min Rain = 0
KWT1 201730Z 18012KT 34/19 A2994 RMK A01 T03360188  RH  042%=      5-min Rain = 0
KWT1 201731Z 20011KT 34/19 A2994 RMK A01 T03380190  RH  042%=      5-min Rain = 0
KWT1 201732Z 19011KT 34/19 A2994 RMK A01 T03350189  RH  042%=      5-min Rain = 0
KWT1 201733Z 19014KT 33/19 A2994 RMK A01 T03340190  RH  043%=      5-min Rain = 0
KWT1 201734Z 19012KT 34/19 A2994 RMK A01 T03350187  RH  042%=      5-min Rain = 0
KWT1 201735Z 17010KT 34/19 A2994 RMK A01 T03360192  RH  043%=      5-min Rain = 0
KWT1 201736Z 17012KT 34/19 A2994 RMK A01 T03380192  RH  042%=      5-min Rain = 0
KWT1 201737Z 20009KT 34/20 A2994 RMK A01 T03390195  RH  043%=      5-min Rain = 0
KWT1 201738Z 19011KT 34/19 A2994 RMK A01 T03410193  RH  042%=      5-min Rain = 0
KWT1 201739Z 17015KT 34/19 A2994 RMK A01 T03390192  RH  042%=      5-min Rain = 0
KWT1 201740Z 18014G19KT 34/19 A2994 RMK A01 T03380188  RH  041%=      5-min Rain = 0
KWT1 201741Z 19011KT 34/19 A2994 RMK A01 T03360188  RH  042%=      5-min Rain = 0
KWT1 201742Z 17012KT 34/19 A2994 RMK A01 T03370191  RH  042%=      5-min Rain = 0
KWT1 201743Z 17014KT 34/19 A2994 RMK A01 T03400190  RH  041%=      5-min Rain = 0
KWT1 201744Z 16013KT 34/19 A2994 RMK A01 T03390190  RH  041%=      5-min Rain = 0
KWT1 201745Z 17014G19KT 34/19 A2994 RMK A01 T03380190  RH  042%=      5-min Rain = 0
KWT1 201746Z 18011KT 34/19 A2994 RMK A01 T03360191  RH  042%=      5-min Rain = 0
KWT1 201747Z 19011KT 34/19 A2994 RMK A01 T03380192  RH  042%=      5-min Rain = 0
KWT1 201748Z 17014KT 34/19 A2994 RMK A01 T03410192  RH  042%=      5-min Rain = 0
KWT1 201749Z 18013KT 34/19 A2994 RMK A01 T03420192  RH  041%=      5-min Rain = 0
KWT1 201750Z 19013KT 34/19 A2994 RMK A01 T03420190  RH  041%=      5-min Rain = 0
KWT1 201751Z 19010KT 34/19 A2994 RMK A01 T03400191  RH  042%=      5-min Rain = 0
KWT1 201752Z 18013KT 34/19 A2994 RMK A01 T03430193  RH  041%=      5-min Rain = 0
KWT1 201753Z 18013KT 34/19 A2994 RMK A01 T03440191  RH  041%=      5-min Rain = 0
KWT1 201754Z 18013KT 34/19 A2994 RMK A01 T03400191  RH  042%=      5-min Rain = 0
KWT1 201755Z 17012KT 34/19 A2994 RMK A01 T03390193  RH  042%=      5-min Rain = 0
KWT1 201756Z 17015KT 34/19 A2993 RMK A01 T03430192  RH  041%=      5-min Rain = 0
KWT1 201757Z 19016KT 35/19 A2993 RMK A01 T03450191  RH  040%=      5-min Rain = 0
KWT1 201758Z 19012KT 34/19 A2993 RMK A01 T03430190  RH  040%=      5-min Rain = 0
KWT1 201759Z 18013KT 34/19 A2993 RMK A01 T03430192  RH  041%=      5-min Rain = 0
KWT1 201800Z 18013KT 35/19 A2993 RMK A01 T03450190  RH  040%=      5-min Rain = 0
KWT1 201801Z 18015KT 35/19 A2993 RMK A01 T03450188  RH  040%=      5-min Rain = 0
KWT1 201802Z 19016G21KT 34/19 A2993 RMK A01 T03440188  RH  040%=      5-min Rain = 0
KWT1 201803Z 18013KT 34/19 A2993 RMK A01 T03440187  RH  039%=      5-min Rain = 0
KWT1 201804Z 18009KT 35/19 A2993 RMK A01 T03450187  RH  039%=      5-min Rain = 0
KWT1 201805Z 17013KT 35/19 A2993 RMK A01 T03470190  RH  040%=      5-min Rain = 0
KWT1 201806Z 18013KT 35/19 A2993 RMK A01 T03480188  RH  039%=      5-min Rain = 0
KWT1 201807Z 18014KT 35/19 A2993 RMK A01 T03460189  RH  040%=      5-min Rain = 0
KWT1 201808Z 19015KT 34/19 A2993 RMK A01 T03440189  RH  040%=      5-min Rain = 0
KWT1 201809Z 18013KT 34/19 A2993 RMK A01 T03440190  RH  040%=      5-min Rain = 0
KWT1 201810Z 17015KT 34/19 A2993 RMK A01 T03440190  RH  040%=      5-min Rain = 0
KWT1 201811Z 16015KT 35/19 A2993 RMK A01 T03470192  RH  040%=      5-min Rain = 0
KWT1 201812Z 18013KT 35/19 A2993 RMK A01 T03480191  RH  040%=      5-min Rain = 0
KWT1 201813Z 19012KT 35/19 A2993 RMK A01 T03510191  RH  039%=      5-min Rain = 0
KWT1 201814Z 18013KT 35/19 A2993 RMK A01 T03510188  RH  038%=      5-min Rain = 0
KWT1 201815Z 17011G17KT 35/19 A2993 RMK A01 T03490190  RH  039%=      5-min Rain = 0
KWT1 201816Z 17012G18KT 35/19 A2993 RMK A01 T03500191  RH  039%=      5-min Rain = 0
KWT1 201817Z 16010KT 35/19 A2993 RMK A01 T03480191  RH  040%=      5-min Rain = 0
KWT1 201818Z 18008KT 35/19 A2993 RMK A01 T03470192  RH  040%=      5-min Rain = 0
KWT1 201819Z 18009KT 36/20 A2993 RMK A01 T03550196  RH  040%=      5-min Rain = 0
KWT1 201820Z 19013KT 36/19 A2993 RMK A01 T03600191  RH  037%=      5-min Rain = 0
KWT1 201821Z 18013G18KT 36/19 A2993 RMK A01 T03550189  RH  038%=      5-min Rain = 0
KWT1 201822Z 18013KT 35/19 A2993 RMK A01 T03520188  RH  038%=      5-min Rain = 0
KWT1 201823Z 18010KT 35/19 A2993 RMK A01 T03490189  RH  039%=      5-min Rain = 0
KWT1 201824Z 20012G18KT 35/19 A2992 RMK A01 T03510192  RH  039%=      5-min Rain = 0
KWT1 201825Z 17013KT 36/19 A2992 RMK A01 T03560191  RH  038%=      5-min Rain = 0
KWT1 201826Z 18014KT 36/19 A2992 RMK A01 T03550189  RH  038%=      5-min Rain = 0
KWT1 201827Z 19014KT 35/19 A2992 RMK A01 T03530190  RH  038%=      5-min Rain = 0
KWT1 201828Z 19015KT 35/19 A2992 RMK A01 T03540190  RH  038%=      5-min Rain = 0
KWT1 201829Z 19013KT 35/19 A2992 RMK A01 T03520187  RH  038%=      5-min Rain = 0
KWT1 201830Z 18012KT 35/19 A2993 RMK A01 T03510188  RH  038%=      5-min Rain = 0
KWT1 201831Z 17015KT 35/19 A2992 RMK A01 T03520188  RH  038%=      5-min Rain = 0
KWT1 201832Z 18015KT 35/19 A2992 RMK A01 T03520189  RH  038%=      5-min Rain = 0
KWT1 201833Z 19015KT 35/19 A2992 RMK A01 T03510188  RH  038%=      5-min Rain = 0
KWT1 201834Z 18016KT 35/19 A2992 RMK A01 T03500188  RH  038%=      5-min Rain = 0
KWT1 201835Z 18011KT 35/19 A2992 RMK A01 T03510188  RH  038%=      5-min Rain = 0
KWT1 201836Z 19013KT 36/19 A2992 RMK A01 T03560190  RH  038%=      5-min Rain = 0
KWT1 201837Z 19012KT 36/19 A2992 RMK A01 T03560188  RH  037%=      5-min Rain = 0
KWT1 201838Z 17011G16KT 36/19 A2992 RMK A01 T03550189  RH  038%=      5-min Rain = 0
KWT1 201839Z 19016KT 36/19 A2992 RMK A01 T03570188  RH  037%=      5-min Rain = 0
KWT1 201840Z 19016KT 36/19 A2992 RMK A01 T03560187  RH  037%=      5-min Rain = 0
KWT1 201841Z 19010KT 35/19 A2992 RMK A01 T03520187  RH  038%=      5-min Rain = 0
KWT1 201842Z 18008KT 35/19 A2992 RMK A01 T03530187  RH  038%=      5-min Rain = 0
KWT1 201843Z 15012KT 36/19 A2992 RMK A01 T03560190  RH  038%=      5-min Rain = 0
KWT1 201844Z 15013KT 36/19 A2992 RMK A01 T03600187  RH  036%=      5-min Rain = 0
KWT1 201845Z 17014KT 36/19 A2992 RMK A01 T03580186  RH  037%=      5-min Rain = 0
KWT1 201846Z 18014KT 36/19 A2992 RMK A01 T03570187  RH  037%=      5-min Rain = 0
KWT1 201847Z 19014KT 36/19 A2992 RMK A01 T03560187  RH  037%=      5-min Rain = 0
KWT1 201848Z 18014G19KT 35/19 A2992 RMK A01 T03530186  RH  037%=      5-min Rain = 0
KWT1 201849Z 16014KT 35/19 A2992 RMK A01 T03520188  RH  038%=      5-min Rain = 0
KWT1 201850Z 16014KT 36/19 A2992 RMK A01 T03560187  RH  037%=      5-min Rain = 0
KWT1 201851Z 17012KT 36/19 A2992 RMK A01 T03560186  RH  037%=      5-min Rain = 0
KWT1 201852Z 17013KT 36/19 A2992 RMK A01 T03560188  RH  037%=      5-min Rain = 0
KWT1 201853Z 19011KT 36/19 A2992 RMK A01 T03560186  RH  037%=      5-min Rain = 0
KWT1 201854Z 19013KT 36/18 A2992 RMK A01 T03560184  RH  036%=      5-min Rain = 0
KWT1 201855Z 18012KT 36/19 A2992 RMK A01 T03560185  RH  037%=      5-min Rain = 0
KWT1 201856Z 19010KT 36/18 A2992 RMK A01 T03560182  RH  036%=      5-min Rain = 0
KWT1 201857Z 19010KT 35/18 A2992 RMK A01 T03530183  RH  037%=      5-min Rain = 0
KWT1 201858Z 19011KT 36/19 A2992 RMK A01 T03550186  RH  037%=      5-min Rain = 0
KWT1 201859Z 16014KT 36/19 A2992 RMK A01 T03610188  RH  036%=      5-min Rain = 0
KWT1 201900Z 15012KT 36/19 A2992 RMK A01 T03620187  RH  036%=      5-min Rain = 0
KWT1 201901Z 16012KT 36/19 A2992 RMK A01 T03610187  RH  036%=      5-min Rain = 0
KWT1 201902Z 18010KT 36/19 A2992 RMK A01 T03610188  RH  036%=      5-min Rain = 0
KWT1 201903Z 19013G18KT 37/19 A2992 RMK A01 T03660188  RH  035%=      5-min Rain = 0
KWT1 201904Z 17017G22KT 36/19 A2991 RMK A01 T03640187  RH  035%=      5-min Rain = 0
KWT1 201905Z 19013KT 36/19 A2992 RMK A01 T03630187  RH  036%=      5-min Rain = 0
KWT1 201906Z 19014KT 36/19 A2991 RMK A01 T03620185  RH  035%=      5-min Rain = 0
KWT1 201907Z 18012KT 36/19 A2991 RMK A01 T03590185  RH  036%=      5-min Rain = 0
KWT1 201908Z 17012KT 36/19 A2991 RMK A01 T03590185  RH  036%=      5-min Rain = 0
KWT1 201909Z 17012KT 36/18 A2991 RMK A01 T03590184  RH  036%=      5-min Rain = 0
KWT1 201910Z 17011KT 36/18 A2991 RMK A01 T03590184  RH  036%=      5-min Rain = 0
KWT1 201911Z 17013KT 36/18 A2991 RMK A01 T03590184  RH  036%=      5-min Rain = 0
KWT1 201912Z 16012KT 36/19 A2991 RMK A01 T03600186  RH  036%=      5-min Rain = 0
KWT1 201913Z 17014KT 36/19 A2991 RMK A01 T03630186  RH  035%=      5-min Rain = 0
KWT1 201914Z 19012KT 36/19 A2991 RMK A01 T03640185  RH  035%=      5-min Rain = 0
KWT1 201915Z 19010KT 36/18 A2991 RMK A01 T03630184  RH  035%=      5-min Rain = 0
KWT1 201916Z 18014KT 36/18 A2991 RMK A01 T03630184  RH  035%=      5-min Rain = 0
KWT1 201917Z 17012KT 36/18 A2991 RMK A01 T03620182  RH  035%=      5-min Rain = 0
KWT1 201918Z 17012KT 36/18 A2991 RMK A01 T03610181  RH  035%=      5-min Rain = 0
KWT1 201919Z 18010KT 36/18 A2991 RMK A01 T03610183  RH  035%=      5-min Rain = 0
KWT1 201920Z 17011KT 37/19 A2991 RMK A01 T03650186  RH  035%=      5-min Rain = 0
KWT1 201921Z 17016KT 37/19 A2991 RMK A01 T03680187  RH  035%=      5-min Rain = 0
KWT1 201922Z 18013G19KT 37/18 A2991 RMK A01 T03690184  RH  034%=      5-min Rain = 0
KWT1 201923Z 17014G20KT 37/19 A2991 RMK A01 T03660185  RH  035%=      5-min Rain = 0
KWT1 201924Z 18014KT 36/18 A2991 RMK A01 T03640184  RH  035%=      5-min Rain = 0
KWT1 201925Z 17012KT 36/18 A2991 RMK A01 T03640184  RH  035%=      5-min Rain = 0
KWT1 201926Z 17011KT 36/18 A299 RMK A01 T03640183  RH  035%=      5-min Rain = 0
KWT1 201927Z 16010KT 36/19 A299 RMK A01 T03640187  RH  035%=      5-min Rain = 0
KWT1 201928Z 15011KT 37/19 A299 RMK A01 T03700190  RH  035%=      5-min Rain = 0
KWT1 201929Z 16011KT 37/19 A2991 RMK A01 T03710189  RH  034%=      5-min Rain = 0
KWT1 201930Z 16010KT 37/19 A299 RMK A01 T03690189  RH  035%=      5-min Rain = 0
KWT1 201931Z 17009KT 37/19 A299 RMK A01 T03690189  RH  035%=      5-min Rain = 0
KWT1 201932Z 19012KT 37/19 A299 RMK A01 T03710188  RH  034%=      5-min Rain = 0
KWT1 201933Z 18011G16KT 37/18 A299 RMK A01 T03730184  RH  033%=      5-min Rain = 0
KWT1 201934Z 17011KT 37/18 A299 RMK A01 T03710182  RH  033%=      5-min Rain = 0
KWT1 201935Z 20010KT 37/18 A299 RMK A01 T03680180  RH  033%=      5-min Rain = 0
KWT1 201936Z 19010KT 37/18 A299 RMK A01 T03650177  RH  033%=      5-min Rain = 0
KWT1 201937Z 19015G20KT 36/18 A299 RMK A01 T03630180  RH  034%=      5-min Rain = 0
KWT1 201938Z 19011KT 37/18 A299 RMK A01 T03650180  RH  034%=      5-min Rain = 0
KWT1 201939Z 20009KT 37/18 A299 RMK A01 T03670182  RH  034%=      5-min Rain = 0
KWT1 201940Z 19010KT 37/18 A299 RMK A01 T03690182  RH  033%=      5-min Rain = 0
KWT1 201941Z 20016KT 37/18 A299 RMK A01 T03690181  RH  033%=      5-min Rain = 0
KWT1 201942Z 20011KT 37/18 A299 RMK A01 T03700179  RH  033%=      5-min Rain = 0
KWT1 201943Z 19011KT 37/18 A299 RMK A01 T03710179  RH  033%=      5-min Rain = 0
KWT1 201944Z 17014KT 37/18 A299 RMK A01 T03720180  RH  033%=      5-min Rain = 0
KWT1 201945Z 17011KT 37/18 A299 RMK A01 T03740179  RH  032%=      5-min Rain = 0
KWT1 201946Z 17011KT 37/18 A299 RMK A01 T03730179  RH  032%=      5-min Rain = 0
KWT1 201947Z 16009KT 37/18 A299 RMK A01 T03700176  RH  032%=      5-min Rain = 0
KWT1 201948Z 17010G16KT 37/18 A299 RMK A01 T03690178  RH  033%=      5-min Rain = 0
KWT1 201949Z 16011KT 37/18 A299 RMK A01 T03710181  RH  033%=      5-min Rain = 0
KWT1 201950Z 19009KT 38/18 A2989 RMK A01 T03750180  RH  032%=      5-min Rain = 0
KWT1 201951Z 17008KT 38/18 A2989 RMK A01 T03790181  RH  032%=      5-min Rain = 0
KWT1 201952Z 17012G17KT 38/18 A2989 RMK A01 T03790181  RH  032%=      5-min Rain = 0
KWT1 201953Z 17013KT 38/18 A2989 RMK A01 T03760175  RH  031%=      5-min Rain = 0
KWT1 201954Z 17012KT 37/17 A2989 RMK A01 T03700170  RH  031%=      5-min Rain = 0
KWT1 201955Z 17011KT 37/18 A2989 RMK A01 T03700175  RH  032%=      5-min Rain = 0
KWT1 201956Z 16010KT 37/18 A2989 RMK A01 T03720182  RH  033%=      5-min Rain = 0
KWT1 201957Z 16014KT 38/18 A2989 RMK A01 T03750184  RH  033%=      5-min Rain = 0
KWT1 201958Z 15014G20KT 38/18 A2989 RMK A01 T03750184  RH  033%=      5-min Rain = 0
KWT1 201959Z 16015KT 38/18 A2989 RMK A01 T03750179  RH  032%=      5-min Rain = 0
KWT1 202000Z 16014KT 38/18 A2989 RMK A01 T03770180  RH  031%=      5-min Rain = 0
KWT1 202001Z 15013KT 38/18 A2989 RMK A01 T03760176  RH  031%=      5-min Rain = 0
KWT1 202002Z 16013KT 38/18 A2989 RMK A01 T03750177  RH  031%=      5-min Rain = 0
KWT1 202003Z 16012KT 38/18 A2989 RMK A01 T03760178  RH  031%=      5-min Rain = 0
KWT1 202004Z 16010KT 38/18 A2989 RMK A01 T03750178  RH  032%=      5-min Rain = 0
KWT1 202005Z 17009KT 38/18 A2989 RMK A01 T03750180  RH  032%=      5-min Rain = 0
KWT1 202006Z 17010KT 38/18 A2989 RMK A01 T03750182  RH  032%=      5-min Rain = 0
KWT1 202007Z 16011KT 38/18 A2989 RMK A01 T03790184  RH  032%=      5-min Rain = 0
KWT1 202008Z 19009G14KT 38/18 A2989 RMK A01 T03820176  RH  030%=      5-min Rain = 0
KWT1 202009Z 17013KT 38/17 A2989 RMK A01 T03820174  RH  030%=      5-min Rain = 0
KWT1 202010Z 16014G19KT 38/17 A2989 RMK A01 T03790174  RH  030%=      5-min Rain = 0
KWT1 202011Z 16014G20KT 38/17 A2989 RMK A01 T03780172  RH  030%=      5-min Rain = 0
KWT1 202012Z 16007KT 38/17 A2989 RMK A01 T03760169  RH  030%=      5-min Rain = 0
KWT1 202013Z 16010KT 38/17 A2989 RMK A01 T03750170  RH  030%=      5-min Rain = 0
KWT1 202014Z 16009KT 38/17 A2989 RMK A01 T03750174  RH  031%=      5-min Rain = 0
KWT1 202015Z 17012KT 38/17 A2989 RMK A01 T03780174  RH  030%=      5-min Rain = 0
KWT1 202016Z 19011KT 38/17 A2989 RMK A01 T03780171  RH  030%=      5-min Rain = 0
KWT1 202017Z 20013KT 38/17 A2988 RMK A01 T03780167  RH  029%=      5-min Rain = 0
KWT1 202018Z 18010KT 38/17 A2989 RMK A01 T03750168  RH  030%=      5-min Rain = 0
KWT1 202019Z 17012KT 38/17 A2988 RMK A01 T03760170  RH  030%=      5-min Rain = 0
KWT1 202020Z 17008KT 38/17 A2988 RMK A01 T03790169  RH  029%=      5-min Rain = 0
KWT1 202021Z 18006KT 38/17 A2988 RMK A01 T03770169  RH  029%=      5-min Rain = 0
KWT1 202022Z 16009G14KT 38/17 A2988 RMK A01 T03760170  RH  030%=      5-min Rain = 0
KWT1 202023Z 17015KT 38/18 A2988 RMK A01 T03770176  RH  031%=      5-min Rain = 0
KWT1 202024Z 16012KT 38/18 A2988 RMK A01 T03760177  RH  031%=      5-min Rain = 0
KWT1 202025Z 16013KT 37/18 A2988 RMK A01 T03730176  RH  032%=      5-min Rain = 0
KWT1 202026Z 17012KT 37/18 A2988 RMK A01 T03710175  RH  032%=      5-min Rain = 0
KWT1 202027Z 15012KT 37/18 A2988 RMK A01 T03720175  RH  032%=      5-min Rain = 0
KWT1 202028Z 16014KT 38/18 A2988 RMK A01 T03750175  RH  031%=      5-min Rain = 0
KWT1 202029Z 18011KT 38/18 A2988 RMK A01 T03780178  RH  031%=      5-min Rain = 0
KWT1 202030Z 18011G16KT 38/18 A2988 RMK A01 T03820180  RH  031%=      5-min Rain = 0
KWT1 202031Z 17012KT 39/18 A2988 RMK A01 T03870179  RH  030%=      5-min Rain = 0
KWT1 202032Z 17013KT 38/18 A2988 RMK A01 T03840176  RH  030%=      5-min Rain = 0
KWT1 202033Z 17011KT 38/18 A2988 RMK A01 T03810176  RH  030%=      5-min Rain = 0
KWT1 202034Z 15013KT 38/18 A2988 RMK A01 T03800177  RH  031%=      5-min Rain = 0
KWT1 202035Z 15012KT 38/18 A2988 RMK A01 T03790177  RH  031%=      5-min Rain = 0
KWT1 202036Z 16016KT 38/18 A2988 RMK A01 T03810175  RH  030%=      5-min Rain = 0
KWT1 202037Z 16015KT 38/18 A2988 RMK A01 T03820175  RH  030%=      5-min Rain = 0
KWT1 202038Z 15014KT 38/18 A2988 RMK A01 T03820175  RH  030%=      5-min Rain = 0
KWT1 202039Z 17014KT 38/18 A2988 RMK A01 T03810175  RH  030%=      5-min Rain = 0
KWT1 202040Z 17013KT 38/17 A2988 RMK A01 T03800172  RH  029%=      5-min Rain = 0
KWT1 202041Z 16009KT 38/17 A2988 RMK A01 T03780172  RH  030%=      5-min Rain = 0
KWT1 202042Z 17010KT 38/18 A2988 RMK A01 T03810177  RH  030%=      5-min Rain = 0
KWT1 202043Z 19010KT 38/17 A2988 RMK A01 T03840171  RH  029%=      5-min Rain = 0
KWT1 202044Z 18011KT 38/17 A2988 RMK A01 T03840171  RH  029%=      5-min Rain = 0
KWT1 202045Z 18010KT 38/17 A2988 RMK A01 T03840170  RH  029%=      5-min Rain = 0
KWT1 202046Z 17014G23KT 38/17 A2988 RMK A01 T03810174  RH  030%=      5-min Rain = 0
KWT1 202047Z 20012G18KT 38/17 A2988 RMK A01 T03820172  RH  029%=      5-min Rain = 0
KWT1 202048Z 20010KT 38/17 A2988 RMK A01 T03800171  RH  029%=      5-min Rain = 0
KWT1 202049Z 19012KT 38/17 A2988 RMK A01 T03800172  RH  030%=      5-min Rain = 0
KWT1 202050Z 18012KT 38/17 A2987 RMK A01 T03810172  RH  029%=      5-min Rain = 0
KWT1 202051Z 17016KT 38/18 A2987 RMK A01 T03840177  RH  030%=      5-min Rain = 0
KWT1 202052Z 16011KT 38/18 A2988 RMK A01 T03840180  RH  030%=      5-min Rain = 0
KWT1 202053Z 16012KT 38/18 A2988 RMK A01 T03830180  RH  031%=      5-min Rain = 0
KWT1 202054Z 15012KT 38/18 A2988 RMK A01 T03840179  RH  030%=      5-min Rain = 0
KWT1 202055Z 16010KT 38/18 A2988 RMK A01 T03840177  RH  030%=      5-min Rain = 0
KWT1 202056Z 18010G15KT 38/18 A2987 RMK A01 T03830175  RH  030%=      5-min Rain = 0
KWT1 202057Z 17011G17KT 38/18 A2987 RMK A01 T03820175  RH  030%=      5-min Rain = 0
KWT1 202058Z 17013G19KT 38/18 A2987 RMK A01 T03840175  RH  029%=      5-min Rain = 0
KWT1 202059Z 15015KT 39/18 A2987 RMK A01 T03870175  RH  029%=      5-min Rain = 0
KWT1 202100Z 17011KT 39/18 A2987 RMK A01 T03860175  RH  029%=      5-min Rain = 0
KWT1 202101Z 18012G18KT 39/17 A2987 RMK A01 T03860174  RH  029%=      5-min Rain = 0
KWT1 202102Z 18012KT 38/17 A2987 RMK A01 T03840172  RH  029%=      5-min Rain = 0
KWT1 202103Z 16012KT 38/17 A2987 RMK A01 T03820174  RH  030%=      5-min Rain = 0
KWT1 202104Z 18012KT 38/17 A2987 RMK A01 T03820174  RH  030%=      5-min Rain = 0
KWT1 202105Z 18015KT 38/18 A2987 RMK A01 T03820175  RH  030%=      5-min Rain = 0
KWT1 202106Z 18015KT 38/18 A2987 RMK A01 T03810175  RH  030%=      5-min Rain = 0
KWT1 202107Z 18013KT 38/18 A2987 RMK A01 T03800175  RH  030%=      5-min Rain = 0
KWT1 202108Z 15013KT 38/18 A2987 RMK A01 T03800177  RH  031%=      5-min Rain = 0
KWT1 202109Z 16012KT 38/18 A2987 RMK A01 T03830176  RH  030%=      5-min Rain = 0
KWT1 202110Z 16012G17KT 38/18 A2987 RMK A01 T03820177  RH  030%=      5-min Rain = 0
KWT1 202111Z 17011KT 38/17 A2987 RMK A01 T03830173  RH  029%=      5-min Rain = 0
KWT1 202112Z 16013KT 38/17 A2987 RMK A01 T03840173  RH  029%=      5-min Rain = 0
KWT1 202113Z 15013KT 38/18 A2987 RMK A01 T03840175  RH  029%=      5-min Rain = 0
KWT1 202114Z 13014KT 38/18 A2987 RMK A01 T03840178  RH  030%=      5-min Rain = 0
KWT1 202115Z 15013KT 38/18 A2987 RMK A01 T03840176  RH  030%=      5-min Rain = 0
KWT1 202116Z 16014KT 38/18 A2987 RMK A01 T03830176  RH  030%=      5-min Rain = 0
KWT1 202117Z 14014KT 38/18 A2987 RMK A01 T03840179  RH  030%=      5-min Rain = 0
KWT1 202118Z 15015KT 39/18 A2987 RMK A01 T03870177  RH  029%=      5-min Rain = 0
KWT1 202119Z 15011KT 39/18 A2987 RMK A01 T03850175  RH  029%=      5-min Rain = 0
KWT1 202120Z 13011KT 38/18 A2987 RMK A01 T03840179  RH  030%=      5-min Rain = 0
KWT1 202121Z 16012KT 39/18 A2987 RMK A01 T03870178  RH  030%=      5-min Rain = 0
KWT1 202122Z 18012G17KT 39/18 A2987 RMK A01 T03870178  RH  029%=      5-min Rain = 0
KWT1 202123Z 17014KT 39/18 A2986 RMK A01 T03860176  RH  029%=      5-min Rain = 0
KWT1 202124Z 16014KT 38/18 A2987 RMK A01 T03830176  RH  030%=      5-min Rain = 0
KWT1 202125Z 15014KT 39/18 A2987 RMK A01 T03850177  RH  030%=      5-min Rain = 0
KWT1 202126Z 15011KT 38/18 A2987 RMK A01 T03840175  RH  030%=      5-min Rain = 0
KWT1 202127Z 16018G23KT 38/18 A2986 RMK A01 T03820176  RH  030%=      5-min Rain = 0
KWT1 202128Z 16017KT 38/17 A2986 RMK A01 T03810174  RH  030%=      5-min Rain = 0
KWT1 202129Z 16011KT 38/18 A2986 RMK A01 T03790175  RH  030%=      5-min Rain = 0
KWT1 202130Z 16013KT 38/18 A2986 RMK A01 T03800175  RH  030%=      5-min Rain = 0
KWT1 202131Z 15013KT 38/17 A2986 RMK A01 T03790174  RH  030%=      5-min Rain = 0
KWT1 202132Z 15014KT 38/17 A2986 RMK A01 T03810174  RH  030%=      5-min Rain = 0
KWT1 202133Z 14014KT 38/18 A2986 RMK A01 T03840175  RH  029%=      5-min Rain = 0
KWT1 202134Z 16014KT 39/18 A2986 RMK A01 T03860175  RH  029%=      5-min Rain = 0
KWT1 202135Z 17014G20KT 39/18 A2986 RMK A01 T03860175  RH  029%=      5-min Rain = 0
KWT1 202136Z 16012KT 39/18 A2986 RMK A01 T03860175  RH  029%=      5-min Rain = 0
KWT1 202137Z 17011KT 38/18 A2986 RMK A01 T03840175  RH  029%=      5-min Rain = 0
KWT1 202138Z 17015KT 38/18 A2986 RMK A01 T03840176  RH  030%=      5-min Rain = 0
KWT1 202139Z 16013KT 38/18 A2986 RMK A01 T03840176  RH  030%=      5-min Rain = 0
KWT1 202140Z 16013KT 38/17 A2986 RMK A01 T03840174  RH  029%=      5-min Rain = 0
KWT1 202141Z 16013KT 38/17 A2986 RMK A01 T03820174  RH  030%=      5-min Rain = 0
KWT1 202142Z 16014KT 38/17 A2986 RMK A01 T03810174  RH  030%=      5-min Rain = 0
KWT1 202143Z 15012G17KT 38/18 A2986 RMK A01 T03800175  RH  030%=      5-min Rain = 0
KWT1 202144Z 16014KT 38/17 A2986 RMK A01 T03820174  RH  030%=      5-min Rain = 0
KWT1 202145Z 16010KT 38/17 A2986 RMK A01 T03820174  RH  030%=      5-min Rain = 0
KWT1 202146Z 15012KT 38/17 A2986 RMK A01 T03820174  RH  030%=      5-min Rain = 0
KWT1 202147Z 15013KT 38/18 A2986 RMK A01 T03830175  RH  030%=      5-min Rain = 0
KWT1 202148Z 16013KT 39/18 A2986 RMK A01 T03850175  RH  029%=      5-min Rain = 0
KWT1 202149Z 16010KT 39/17 A2986 RMK A01 T03850173  RH  029%=      5-min Rain = 0
KWT1 202150Z 16013KT 39/17 A2986 RMK A01 T03850174  RH  029%=      5-min Rain = 0
KWT1 202151Z 15017KT 39/18 A2986 RMK A01 T03860176  RH  029%=      5-min Rain = 0
KWT1 202152Z 15016KT 39/18 A2986 RMK A01 T03870175  RH  029%=      5-min Rain = 0
KWT1 202153Z 16015KT 39/17 A2986 RMK A01 T03860174  RH  029%=      5-min Rain = 0
KWT1 202154Z 17017KT 39/17 A2986 RMK A01 T03860173  RH  029%=      5-min Rain = 0
KWT1 202155Z 17013KT 39/17 A2986 RMK A01 T03850172  RH  029%=      5-min Rain = 0
KWT1 202156Z 16012G17KT 39/17 A2986 RMK A01 T03860174  RH  029%=      5-min Rain = 0
KWT1 202157Z 16011G16KT 39/18 A2986 RMK A01 T03900175  RH  028%=      5-min Rain = 0
KWT1 202158Z 16013KT 39/17 A2986 RMK A01 T03900172  RH  028%=      5-min Rain = 0
KWT1 202159Z 15013KT 39/17 A2986 RMK A01 T03890172  RH  028%=      5-min Rain = 0
KWT1 202200Z 16012KT 39/17 A2986 RMK A01 T03870171  RH  028%=      5-min Rain = 0
KWT1 202201Z 15012KT 38/17 A2986 RMK A01 T03840171  RH  029%=      5-min Rain = 0
KWT1 202202Z 16015G22KT 38/17 A2986 RMK A01 T03830171  RH  029%=      5-min Rain = 0
KWT1 202203Z 16018KT 38/17 A2986 RMK A01 T03820171  RH  029%=      5-min Rain = 0
KWT1 202204Z 16015G20KT 38/17 A2986 RMK A01 T03810170  RH  029%=      5-min Rain = 0
KWT1 202205Z 16017KT 38/17 A2986 RMK A01 T03780169  RH  029%=      5-min Rain = 0
KWT1 202206Z 15013KT 38/17 A2985 RMK A01 T03770169  RH  030%=      5-min Rain = 0
KWT1 202207Z 14013KT 38/17 A2986 RMK A01 T03800172  RH  030%=      5-min Rain = 0
KWT1 202208Z 16012KT 38/17 A2986 RMK A01 T03830172  RH  029%=      5-min Rain = 0
KWT1 202209Z 18013KT 39/17 A2986 RMK A01 T03850171  RH  029%=      5-min Rain = 0
KWT1 202210Z 18013KT 39/17 A2985 RMK A01 T03850170  RH  028%=      5-min Rain = 0
KWT1 202211Z 18014G19KT 38/17 A2985 RMK A01 T03840169  RH  028%=      5-min Rain = 0
KWT1 202212Z 17015G20KT 38/17 A2985 RMK A01 T03820168  RH  029%=      5-min Rain = 0
KWT1 202213Z 15014G20KT 38/17 A2985 RMK A01 T03810169  RH  029%=      5-min Rain = 0
KWT1 202214Z 16016KT 38/17 A2985 RMK A01 T03810169  RH  029%=      5-min Rain = 0
KWT1 202215Z 16012KT 38/17 A2985 RMK A01 T03820169  RH  029%=      5-min Rain = 0
KWT1 202216Z 16014KT 38/17 A2985 RMK A01 T03820168  RH  028%=      5-min Rain = 0
KWT1 202217Z 17010KT 38/17 A2985 RMK A01 T03820169  RH  029%=      5-min Rain = 0
KWT1 202218Z 17011KT 39/17 A2985 RMK A01 T03850171  RH  029%=      5-min Rain = 0
KWT1 202219Z 16012KT 39/17 A2985 RMK A01 T03870169  RH  028%=      5-min Rain = 0
KWT1 202220Z 17012KT 39/17 A2985 RMK A01 T03860169  RH  028%=      5-min Rain = 0
KWT1 202221Z 17013KT 39/17 A2985 RMK A01 T03850169  RH  028%=      5-min Rain = 0
KWT1 202222Z 16018KT 39/17 A2985 RMK A01 T03850168  RH  028%=      5-min Rain = 0
KWT1 202223Z 16013KT 38/17 A2985 RMK A01 T03830166  RH  028%=      5-min Rain = 0
KWT1 202224Z 16011KT 38/17 A2985 RMK A01 T03820168  RH  028%=      5-min Rain = 0
KWT1 202225Z 15010KT 38/17 A2985 RMK A01 T03840169  RH  028%=      5-min Rain = 0
KWT1 202226Z 14012G19KT 39/17 A2985 RMK A01 T03850170  RH  028%=      5-min Rain = 0
KWT1 202227Z 15015KT 39/17 A2985 RMK A01 T03870169  RH  028%=      5-min Rain = 0
KWT1 202228Z 15016G24KT 39/17 A2985 RMK A01 T03870169  RH  028%=      5-min Rain = 0
KWT1 202229Z 17013KT 39/17 A2985 RMK A01 T03880168  RH  028%=      5-min Rain = 0
KWT1 202230Z 17012KT 38/16 A2985 RMK A01 T03840164  RH  028%=      5-min Rain = 0
KWT1 202231Z 17013KT 38/17 A2985 RMK A01 T03810166  RH  028%=      5-min Rain = 0
KWT1 202232Z 17011G16KT 38/17 A2985 RMK A01 T03810166  RH  028%=      5-min Rain = 0
KWT1 202233Z 15012KT 38/17 A2985 RMK A01 T03840167  RH  028%=      5-min Rain = 0
KWT1 202234Z 15009KT 39/17 A2985 RMK A01 T03850166  RH  028%=      5-min Rain = 0
KWT1 202235Z 14010KT 39/17 A2985 RMK A01 T03850167  RH  028%=      5-min Rain = 0
KWT1 202236Z 15015KT 39/17 A2985 RMK A01 T03860166  RH  028%=      5-min Rain = 0
KWT1 202237Z 15017KT 39/17 A2985 RMK A01 T03860165  RH  027%=      5-min Rain = 0
KWT1 202238Z 15014KT 39/17 A2985 RMK A01 T03860165  RH  027%=      5-min Rain = 0
KWT1 202239Z 16012KT 39/17 A2985 RMK A01 T03850165  RH  028%=      5-min Rain = 0
KWT1 202240Z 16012KT 39/17 A2985 RMK A01 T03870165  RH  027%=      5-min Rain = 0
KWT1 202241Z 17013KT 39/17 A2985 RMK A01 T03870165  RH  027%=      5-min Rain = 0
KWT1 202242Z 16012KT 39/17 A2985 RMK A01 T03860166  RH  027%=      5-min Rain = 0
KWT1 202243Z 15009KT 39/17 A2985 RMK A01 T03880167  RH  027%=      5-min Rain = 0
KWT1 202244Z 15012KT 39/17 A2985 RMK A01 T03890166  RH  027%=      5-min Rain = 0
KWT1 202245Z 17010G15KT 39/16 A2985 RMK A01 T03890164  RH  027%=      5-min Rain = 0
KWT1 202246Z 19010KT 39/16 A2985 RMK A01 T03880164  RH  027%=      5-min Rain = 0
KWT1 202247Z 16012G17KT 39/16 A2985 RMK A01 T03880164  RH  027%=      5-min Rain = 0
KWT1 202248Z 16016KT 39/16 A2984 RMK A01 T03890164  RH  027%=      5-min Rain = 0
KWT1 202249Z 17014KT 39/16 A2984 RMK A01 T03880161  RH  027%=      5-min Rain = 0
KWT1 202250Z 15015KT 39/16 A2984 RMK A01 T03870162  RH  027%=      5-min Rain = 0
KWT1 202251Z 15019G24KT 39/16 A2984 RMK A01 T03860162  RH  027%=      5-min Rain = 0
KWT1 202252Z 16015KT 38/16 A2984 RMK A01 T03840160  RH  027%=      5-min Rain = 0
KWT1 202253Z 15017KT 38/16 A2984 RMK A01 T03830160  RH  027%=      5-min Rain = 0
KWT1 202254Z 15016KT 38/16 A2984 RMK A01 T03820159  RH  027%=      5-min Rain = 0
KWT1 202255Z 15017KT 38/16 A2984 RMK A01 T03810159  RH  027%=      5-min Rain = 0
KWT1 202256Z 14013G18KT 38/16 A2984 RMK A01 T03820161  RH  027%=      5-min Rain = 0
KWT1 202257Z 14015G20KT 38/16 A2984 RMK A01 T03830161  RH  027%=      5-min Rain = 0
KWT1 202258Z 17015G21KT 38/16 A2984 RMK A01 T03840162  RH  027%=      5-min Rain = 0
KWT1 202259Z 17015KT 39/16 A2984 RMK A01 T03850162  RH  027%=      5-min Rain = 0
KWT1 202300Z 17013G18KT 39/16 A2984 RMK A01 T03850161  RH  027%=      5-min Rain = 0
KWT1 202301Z 18013KT 38/16 A2984 RMK A01 T03840160  RH  027%=      5-min Rain = 0
KWT1 202302Z 18014KT 39/16 A2984 RMK A01 T03850160  RH  027%=      5-min Rain = 0
KWT1 202303Z 17014KT 38/16 A2984 RMK A01 T03840159  RH  027%=      5-min Rain = 0
KWT1 202304Z 16015KT 38/16 A2984 RMK A01 T03820158  RH  027%=      5-min Rain = 0
KWT1 202305Z 15014KT 38/16 A2984 RMK A01 T03810158  RH  027%=      5-min Rain = 0
KWT1 202306Z 15014KT 38/16 A2984 RMK A01 T03820159  RH  027%=      5-min Rain = 0
KWT1 202307Z 15014KT 38/16 A2984 RMK A01 T03840159  RH  027%=      5-min Rain = 0
KWT1 202308Z 15015G20KT 38/16 A2984 RMK A01 T03840159  RH  027%=      5-min Rain = 0
KWT1 202309Z 15016G22KT 38/16 A2984 RMK A01 T03840159  RH  027%=      5-min Rain = 0
KWT1 202310Z 15019KT 38/16 A2984 RMK A01 T03840157  RH  026%=      5-min Rain = 0
KWT1 202311Z 15015KT 38/16 A2984 RMK A01 T03830158  RH  027%=      5-min Rain = 0
KWT1 202312Z 15011KT 38/16 A2984 RMK A01 T03830158  RH  027%=      5-min Rain = 0
KWT1 202313Z 14012KT 38/16 A2984 RMK A01 T03830158  RH  027%=      5-min Rain = 0
KWT1 202314Z 15016KT 38/16 A2984 RMK A01 T03840159  RH  027%=      5-min Rain = 0
KWT1 202315Z 15017KT 38/16 A2984 RMK A01 T03840158  RH  026%=      5-min Rain = 0
KWT1 202316Z 15015KT 38/16 A2984 RMK A01 T03830156  RH  026%=      5-min Rain = 0
KWT1 202317Z 17016KT 38/16 A2984 RMK A01 T03800157  RH  027%=      5-min Rain = 0
KWT1 202318Z 16016KT 38/16 A2984 RMK A01 T03800156  RH  027%=      5-min Rain = 0
KWT1 202319Z 15015KT 38/16 A2984 RMK A01 T03780157  RH  027%=      5-min Rain = 0
KWT1 202320Z 15017KT 38/16 A2984 RMK A01 T03790158  RH  027%=      5-min Rain = 0
KWT1 202321Z 15016KT 38/16 A2984 RMK A01 T03800157  RH  027%=      5-min Rain = 0
KWT1 202322Z 15014KT 38/16 A2984 RMK A01 T03790157  RH  027%=      5-min Rain = 0
KWT1 202323Z 15015KT 38/16 A2984 RMK A01 T03800158  RH  027%=      5-min Rain = 0
KWT1 202324Z 15014KT 38/16 A2984 RMK A01 T03800157  RH  027%=      5-min Rain = 0
KWT1 202325Z 16014KT 38/16 A2984 RMK A01 T03800157  RH  027%=      5-min Rain = 0
KWT1 202326Z 17011KT 38/16 A2984 RMK A01 T03800157  RH  027%=      5-min Rain = 0
KWT1 202327Z 16012G17KT 38/16 A2984 RMK A01 T03810159  RH  027%=      5-min Rain = 0
KWT1 202328Z 15017KT 38/16 A2984 RMK A01 T03820157  RH  026%=      5-min Rain = 0
KWT1 202329Z 16014KT 38/16 A2984 RMK A01 T03800156  RH  027%=      5-min Rain = 0
KWT1 202330Z 15015KT 38/16 A2984 RMK A01 T03800158  RH  027%=      5-min Rain = 0
KWT1 202331Z 15014KT 38/16 A2984 RMK A01 T03810156  RH  027%=      5-min Rain = 0
KWT1 202332Z 16012KT 38/16 A2984 RMK A01 T03810157  RH  027%=      5-min Rain = 0
KWT1 202333Z 16011KT 38/16 A2984 RMK A01 T03810158  RH  027%=      5-min Rain = 0
KWT1 202334Z 16015KT 38/16 A2984 RMK A01 T03820158  RH  027%=      5-min Rain = 0
KWT1 202335Z 16016KT 38/16 A2984 RMK A01 T03810157  RH  027%=      5-min Rain = 0
KWT1 202336Z 16015KT 38/16 A2984 RMK A01 T03800155  RH  027%=      5-min Rain = 0
KWT1 202337Z 17016KT 38/16 A2984 RMK A01 T03790155  RH  027%=      5-min Rain = 0
KWT1 202338Z 16016KT 38/16 A2984 RMK A01 T03780155  RH  027%=      5-min Rain = 0
KWT1 202339Z 17016KT 38/16 A2984 RMK A01 T03780155  RH  027%=      5-min Rain = 0
KWT1 202340Z 16013KT 38/16 A2984 RMK A01 T03780155  RH  027%=      5-min Rain = 0
KWT1 202341Z 16015KT 38/16 A2984 RMK A01 T03780155  RH  027%=      5-min Rain = 0
KWT1 202342Z 16017KT 38/15 A2984 RMK A01 T03790154  RH  026%=      5-min Rain = 0
KWT1 202343Z 16018KT 38/15 A2984 RMK A01 T03780152  RH  026%=      5-min Rain = 0
KWT1 202344Z 16014KT 38/15 A2984 RMK A01 T03770151  RH  026%=      5-min Rain = 0
KWT1 202345Z 16013KT 38/15 A2984 RMK A01 T03770152  RH  026%=      5-min Rain = 0
KWT1 202346Z 15015KT 38/15 A2984 RMK A01 T03770151  RH  026%=      5-min Rain = 0
KWT1 202347Z 15013KT 38/15 A2984 RMK A01 T03770153  RH  027%=      5-min Rain = 0
KWT1 202348Z 16014KT 38/15 A2984 RMK A01 T03770153  RH  027%=      5-min Rain = 0
KWT1 202349Z 16014KT 38/15 A2984 RMK A01 T03770153  RH  027%=      5-min Rain = 0
KWT1 202350Z 16016KT 38/15 A2984 RMK A01 T03770154  RH  027%=      5-min Rain = 0
KWT1 202351Z 16015KT 38/15 A2984 RMK A01 T03770153  RH  027%=      5-min Rain = 0
KWT1 202352Z 15018KT 38/15 A2984 RMK A01 T03760152  RH  027%=      5-min Rain = 0
KWT1 202353Z 16016KT 38/15 A2984 RMK A01 T03750153  RH  027%=      5-min Rain = 0
KWT1 202354Z 16016KT 38/15 A2984 RMK A01 T03750152  RH  027%=      5-min Rain = 0
KWT1 202355Z 17012KT 38/15 A2984 RMK A01 T03750152  RH  027%=      5-min Rain = 0
KWT1 202356Z 16013KT 38/15 A2984 RMK A01 T03760152  RH  027%=      5-min Rain = 0
KWT1 202357Z 16017KT 38/15 A2984 RMK A01 T03760151  RH  026%=      5-min Rain = 0
KWT1 202358Z 16015KT 38/15 A2984 RMK A01 T03750151  RH  027%=      5-min Rain = 0
KWT1 202359Z 16016KT 38/15 A2983 RMK A01 T03750152  RH  027%=      5-min Rain = 0
KWT1 210000Z 15013KT 38/15 A2984 RMK A01 T03750152  RH  027%=      5-min Rain = 0
KWT1 210001Z 16016KT 38/15 A2983 RMK A01 T03750153  RH  027%=      5-min Rain = 0
KWT1 210002Z 15014KT 38/15 A2984 RMK A01 T03750153  RH  027%=      5-min Rain = 0
KWT1 210003Z 15015G22KT 38/15 A2983 RMK A01 T03760154  RH  027%=      5-min Rain = 0
KWT1 210004Z 15016KT 38/15 A2984 RMK A01 T03760153  RH  027%=      5-min Rain = 0
KWT1 210005Z 14019KT 38/15 A2983 RMK A01 T03750152  RH  027%=      5-min Rain = 0
KWT1 210006Z 16015G20KT 37/15 A2984 RMK A01 T03730151  RH  027%=      5-min Rain = 0
KWT1 210007Z 16016G21KT 37/15 A2984 RMK A01 T03720152  RH  027%=      5-min Rain = 0
KWT1 210008Z 15017KT 37/15 A2984 RMK A01 T03730152  RH  027%=      5-min Rain = 0
KWT1 210009Z 15018KT 37/15 A2984 RMK A01 T03730151  RH  027%=      5-min Rain = 0
KWT1 210010Z 15017KT 37/15 A2984 RMK A01 T03730150  RH  027%=      5-min Rain = 0
KWT1 210011Z 15015KT 37/15 A2984 RMK A01 T03720151  RH  027%=      5-min Rain = 0
KWT1 210012Z 16015KT 37/15 A2984 RMK A01 T03720151  RH  027%=      5-min Rain = 0
KWT1 210013Z 15015KT 37/15 A2983 RMK A01 T03730150  RH  027%=      5-min Rain = 0
KWT1 210014Z 15014KT 37/15 A2984 RMK A01 T03730152  RH  027%=      5-min Rain = 0
KWT1 210015Z 16012KT 37/15 A2984 RMK A01 T03730152  RH  027%=      5-min Rain = 0
KWT1 210016Z 16016G21KT 37/15 A2984 RMK A01 T03730152  RH  027%=      5-min Rain = 0
KWT1 210017Z 16014KT 37/15 A2984 RMK A01 T03730152  RH  027%=      5-min Rain = 0
KWT1 210018Z 16015G20KT 37/15 A2984 RMK A01 T03720151  RH  027%=      5-min Rain = 0
KWT1 210019Z 15013G18KT 37/15 A2984 RMK A01 T03710152  RH  027%=      5-min Rain = 0
KWT1 210020Z 15014KT 37/15 A2984 RMK A01 T03720152  RH  027%=      5-min Rain = 0
KWT1 210021Z 15016G21KT 37/15 A2984 RMK A01 T03710151  RH  027%=      5-min Rain = 0
KWT1 210022Z 15015G20KT 37/15 A2984 RMK A01 T03710149  RH  027%=      5-min Rain = 0
KWT1 210023Z 17016KT 37/15 A2984 RMK A01 T03710148  RH  027%=      5-min Rain = 0
KWT1 210024Z 16014KT 37/15 A2983 RMK A01 T03700146  RH  027%=      5-min Rain = 0
KWT1 210025Z 16014KT 37/15 A2984 RMK A01 T03690147  RH  027%=      5-min Rain = 0
KWT1 210026Z 16015KT 37/15 A2983 RMK A01 T03690147  RH  027%=      5-min Rain = 0
KWT1 210027Z 15016KT 37/15 A2983 RMK A01 T03700148  RH  027%=      5-min Rain = 0
KWT1 210028Z 16015KT 37/15 A2983 RMK A01 T03700149  RH  027%=      5-min Rain = 0
KWT1 210029Z 16014G19KT 37/15 A2983 RMK A01 T03690148  RH  027%=      5-min Rain = 0
KWT1 210030Z 16012KT 37/15 A2983 RMK A01 T03680148  RH  027%=      5-min Rain = 0
KWT1 210031Z 16014G20KT 37/15 A2983 RMK A01 T03680149  RH  027%=      5-min Rain = 0
KWT1 210032Z 15016KT 37/15 A2983 RMK A01 T03680147  RH  027%=      5-min Rain = 0
KWT1 210033Z 16018KT 37/15 A2983 RMK A01 T03670147  RH  027%=      5-min Rain = 0
KWT1 210034Z 15020KT 37/15 A2983 RMK A01 T03660146  RH  027%=      5-min Rain = 0
KWT1 210035Z 15018KT 37/15 A2983 RMK A01 T03660145  RH  027%=      5-min Rain = 0
KWT1 210036Z 16015KT 37/15 A2983 RMK A01 T03650146  RH  027%=      5-min Rain = 0
KWT1 210037Z 15013KT 37/15 A2984 RMK A01 T03660147  RH  027%=      5-min Rain = 0
KWT1 210038Z 16016KT 37/15 A2983 RMK A01 T03650146  RH  027%=      5-min Rain = 0
KWT1 210039Z 16017KT 37/15 A2983 RMK A01 T03660145  RH  027%=      5-min Rain = 0
KWT1 210040Z 15014KT 37/15 A2984 RMK A01 T03650145  RH  027%=      5-min Rain = 0
KWT1 210041Z 16015KT 37/15 A2984 RMK A01 T03650145  RH  027%=      5-min Rain = 0
KWT1 210042Z 15016KT 37/15 A2984 RMK A01 T03650145  RH  027%=      5-min Rain = 0
KWT1 210043Z 15014KT 36/15 A2984 RMK A01 T03640145  RH  027%=      5-min Rain = 0
KWT1 210044Z 15016KT 36/15 A2984 RMK A01 T03640145  RH  027%=      5-min Rain = 0
KWT1 210045Z 15017G23KT 36/15 A2984 RMK A01 T03640145  RH  027%=      5-min Rain = 0
KWT1 210046Z 16015KT 36/14 A2984 RMK A01 T03630144  RH  027%=      5-min Rain = 0
KWT1 210047Z 16016KT 36/14 A2984 RMK A01 T03630144  RH  027%=      5-min Rain = 0
KWT1 210048Z 16015KT 36/15 A2984 RMK A01 T03630145  RH  027%=      5-min Rain = 0
KWT1 210049Z 16015KT 36/14 A2984 RMK A01 T03630143  RH  027%=      5-min Rain = 0
KWT1 210050Z 16013KT 36/14 A2984 RMK A01 T03620143  RH  027%=      5-min Rain = 0
KWT1 210051Z 15014G19KT 36/14 A2984 RMK A01 T03620144  RH  027%=      5-min Rain = 0
KWT1 210052Z 15016KT 36/14 A2984 RMK A01 T03620143  RH  027%=      5-min Rain = 0
KWT1 210053Z 16014KT 36/14 A2984 RMK A01 T03620143  RH  027%=      5-min Rain = 0
KWT1 210054Z 15017KT 36/14 A2984 RMK A01 T03610142  RH  027%=      5-min Rain = 0
KWT1 210055Z 15015KT 36/14 A2984 RMK A01 T03610141  RH  027%=      5-min Rain = 0
KWT1 210056Z 15012KT 36/14 A2984 RMK A01 T03610142  RH  027%=      5-min Rain = 0
KWT1 210057Z 16014KT 36/14 A2984 RMK A01 T03610143  RH  027%=      5-min Rain = 0
KWT1 210058Z 15014KT 36/14 A2984 RMK A01 T03600142  RH  027%=      5-min Rain = 0
KWT1 210059Z 16016KT 36/14 A2984 RMK A01 T03600142  RH  027%=      5-min Rain = 0
KWT1 210100Z 15015KT 36/14 A2984 RMK A01 T03590142  RH  027%=      5-min Rain = 0
KWT1 210101Z 16016KT 36/14 A2984 RMK A01 T03590142  RH  027%=      5-min Rain = 0
KWT1 210102Z 16015KT 36/14 A2984 RMK A01 T03580141  RH  027%=      5-min Rain = 0
KWT1 210103Z 16015KT 36/14 A2984 RMK A01 T03580142  RH  028%=      5-min Rain = 0
KWT1 210104Z 16014KT 36/14 A2984 RMK A01 T03580142  RH  027%=      5-min Rain = 0
KWT1 210105Z 16013KT 36/14 A2984 RMK A01 T03570141  RH  027%=      5-min Rain = 0
KWT1 210106Z 16014KT 36/14 A2984 RMK A01 T03570141  RH  028%=      5-min Rain = 0
KWT1 210107Z 16014KT 36/14 A2984 RMK A01 T03570140  RH  027%=      5-min Rain = 0
KWT1 210108Z 15014KT 36/14 A2984 RMK A01 T03560140  RH  027%=      5-min Rain = 0
KWT1 210109Z 16016G21KT 36/14 A2984 RMK A01 T03560139  RH  027%=      5-min Rain = 0
KWT1 210110Z 15017KT 36/14 A2984 RMK A01 T03560138  RH  027%=      5-min Rain = 0
KWT1 210111Z 15016KT 36/14 A2984 RMK A01 T03560138  RH  027%=      5-min Rain = 0
KWT1 210112Z 16015G20KT 36/14 A2984 RMK A01 T03550137  RH  027%=      5-min Rain = 0
KWT1 210113Z 16014KT 36/14 A2984 RMK A01 T03550137  RH  027%=      5-min Rain = 0
KWT1 210114Z 15015G20KT 35/14 A2984 RMK A01 T03540137  RH  027%=      5-min Rain = 0
KWT1 210115Z 16013G18KT 35/14 A2984 RMK A01 T03540137  RH  027%=      5-min Rain = 0
KWT1 210116Z 16014KT 35/14 A2984 RMK A01 T03540137  RH  027%=      5-min Rain = 0
KWT1 210117Z 16016KT 35/14 A2984 RMK A01 T03530137  RH  027%=      5-min Rain = 0
KWT1 210118Z 16016KT 35/14 A2984 RMK A01 T03530137  RH  027%=      5-min Rain = 0
KWT1 210119Z 16013KT 35/14 A2984 RMK A01 T03530137  RH  027%=      5-min Rain = 0
KWT1 210120Z 16013KT 35/14 A2984 RMK A01 T03520137  RH  027%=      5-min Rain = 0
KWT1 210121Z 15014KT 35/14 A2984 RMK A01 T03520137  RH  028%=      5-min Rain = 0
KWT1 210122Z 16015KT 35/14 A2984 RMK A01 T03520137  RH  028%=      5-min Rain = 0
KWT1 210123Z 15013KT 35/14 A2984 RMK A01 T03510137  RH  028%=      5-min Rain = 0
KWT1 210124Z 16015KT 35/14 A2984 RMK A01 T03510137  RH  028%=      5-min Rain = 0
KWT1 210125Z 16014KT 35/14 A2984 RMK A01 T03510137  RH  028%=      5-min Rain = 0
KWT1 210126Z 16013KT 35/14 A2984 RMK A01 T03500136  RH  028%=      5-min Rain = 0
KWT1 210127Z 16011KT 35/14 A2984 RMK A01 T03500137  RH  028%=      5-min Rain = 0
KWT1 210128Z 16012KT 35/14 A2984 RMK A01 T03490137  RH  028%=      5-min Rain = 0
KWT1 210129Z 16010KT 35/14 A2984 RMK A01 T03480136  RH  028%=      5-min Rain = 0
KWT1 210130Z 16011G16KT 35/14 A2985 RMK A01 T03480137  RH  028%=      5-min Rain = 0
KWT1 210131Z 16010KT 35/14 A2985 RMK A01 T03480137  RH  028%=      5-min Rain = 0
KWT1 210132Z 15012KT 35/14 A2985 RMK A01 T03470137  RH  028%=      5-min Rain = 0
KWT1 210133Z 16012KT 35/14 A2985 RMK A01 T03460138  RH  029%=      5-min Rain = 0
KWT1 210134Z 15010KT 35/14 A2985 RMK A01 T03460138  RH  029%=      5-min Rain = 0
KWT1 210135Z 15010KT 35/14 A2985 RMK A01 T03450139  RH  029%=      5-min Rain = 0
KWT1 210136Z 15013KT 34/14 A2985 RMK A01 T03440140  RH  029%=      5-min Rain = 0
KWT1 210137Z 16013KT 34/14 A2985 RMK A01 T03440141  RH  030%=      5-min Rain = 0
KWT1 210138Z 16011KT 34/14 A2985 RMK A01 T03440142  RH  030%=      5-min Rain = 0
KWT1 210139Z 16011KT 34/14 A2985 RMK A01 T03430142  RH  030%=      5-min Rain = 0
KWT1 210140Z 16011KT 34/14 A2985 RMK A01 T03430143  RH  030%=      5-min Rain = 0
KWT1 210141Z 16011KT 34/14 A2985 RMK A01 T03420143  RH  030%=      5-min Rain = 0
KWT1 210142Z 16012KT 34/14 A2985 RMK A01 T03420143  RH  030%=      5-min Rain = 0
KWT1 210143Z 16013KT 34/14 A2985 RMK A01 T03410143  RH  030%=      5-min Rain = 0
KWT1 210144Z 16013KT 34/14 A2985 RMK A01 T03410143  RH  030%=      5-min Rain = 0
KWT1 210145Z 16011KT 34/14 A2985 RMK A01 T03410143  RH  030%=      5-min Rain = 0
KWT1 210146Z 16012KT 34/14 A2985 RMK A01 T03410143  RH  031%=      5-min Rain = 0
KWT1 210147Z 16013KT 34/14 A2985 RMK A01 T03400143  RH  031%=      5-min Rain = 0
KWT1 210148Z 16011KT 34/14 A2985 RMK A01 T03400143  RH  031%=      5-min Rain = 0
KWT1 210149Z 16013KT 34/14 A2985 RMK A01 T03400144  RH  031%=      5-min Rain = 0
KWT1 210150Z 16010KT 34/14 A2985 RMK A01 T03390144  RH  031%=      5-min Rain = 0
KWT1 210151Z 16010KT 34/14 A2985 RMK A01 T03390144  RH  031%=      5-min Rain = 0
KWT1 210152Z 16011KT 34/14 A2985 RMK A01 T03380144  RH  031%=      5-min Rain = 0
KWT1 210153Z 15011KT 34/14 A2985 RMK A01 T03370144  RH  031%=      5-min Rain = 0
KWT1 210154Z 15011KT 34/14 A2985 RMK A01 T03370144  RH  031%=      5-min Rain = 0
KWT1 210155Z 16011KT 34/15 A2985 RMK A01 T03370145  RH  032%=      5-min Rain = 0
KWT1 210156Z 16011KT 34/15 A2985 RMK A01 T03360145  RH  032%=      5-min Rain = 0
KWT1 210157Z 16012KT 34/15 A2985 RMK A01 T03350145  RH  032%=      5-min Rain = 0
KWT1 210158Z 16011KT 34/15 A2985 RMK A01 T03350145  RH  032%=      5-min Rain = 0
KWT1 210159Z 16011KT 34/15 A2985 RMK A01 T03350145  RH  032%=      5-min Rain = 0
KWT1 210200Z 16012KT 33/15 A2985 RMK A01 T03340145  RH  032%=      5-min Rain = 0
KWT1 210201Z 16012KT 33/15 A2985 RMK A01 T03340145  RH  032%=      5-min Rain = 0
KWT1 210202Z 16010KT 33/15 A2985 RMK A01 T03340146  RH  032%=      5-min Rain = 0
KWT1 210203Z 16013KT 33/15 A2985 RMK A01 T03340145  RH  032%=      5-min Rain = 0
KWT1 210204Z 16012KT 33/15 A2985 RMK A01 T03330145  RH  032%=      5-min Rain = 0
KWT1 210205Z 16013KT 33/15 A2985 RMK A01 T03330145  RH  032%=      5-min Rain = 0
KWT1 210206Z 16012KT 33/15 A2985 RMK A01 T03330146  RH  032%=      5-min Rain = 0
KWT1 210207Z 16012KT 33/15 A2985 RMK A01 T03330145  RH  032%=      5-min Rain = 0
KWT1 210208Z 16011G16KT 33/15 A2985 RMK A01 T03330146  RH  032%=      5-min Rain = 0
KWT1 210209Z 16011KT 33/15 A2985 RMK A01 T03320145  RH  032%=      5-min Rain = 0
KWT1 210210Z 16010KT 33/15 A2986 RMK A01 T03320145  RH  033%=      5-min Rain = 0
KWT1 210211Z 16012KT 33/15 A2986 RMK A01 T03310145  RH  033%=      5-min Rain = 0
KWT1 210212Z 16011KT 33/15 A2986 RMK A01 T03310145  RH  033%=      5-min Rain = 0
KWT1 210213Z 16011KT 33/15 A2986 RMK A01 T03310145  RH  033%=      5-min Rain = 0
KWT1 210214Z 16011KT 33/15 A2986 RMK A01 T03310145  RH  033%=      5-min Rain = 0
KWT1 210215Z 16010KT 33/15 A2986 RMK A01 T03310145  RH  033%=      5-min Rain = 0
KWT1 210216Z 16012KT 33/14 A2986 RMK A01 T03300144  RH  033%=      5-min Rain = 0
KWT1 210217Z 16010KT 33/14 A2986 RMK A01 T03300144  RH  033%=      5-min Rain = 0
KWT1 210218Z 16011KT 33/14 A2986 RMK A01 T03290144  RH  033%=      5-min Rain = 0
KWT1 210219Z 15011KT 33/14 A2986 RMK A01 T03280144  RH  033%=      5-min Rain = 0
KWT1 210220Z 16011KT 33/14 A2986 RMK A01 T03280144  RH  033%=      5-min Rain = 0
KWT1 210221Z 16011KT 33/14 A2986 RMK A01 T03280144  RH  033%=      5-min Rain = 0
KWT1 210222Z 16011KT 33/14 A2986 RMK A01 T03280143  RH  033%=      5-min Rain = 0
KWT1 210223Z 16012KT 33/14 A2986 RMK A01 T03280143  RH  033%=      5-min Rain = 0
KWT1 210224Z 15011KT 33/14 A2986 RMK A01 T03280143  RH  033%=      5-min Rain = 0
KWT1 210225Z 16010KT 33/14 A2986 RMK A01 T03280143  RH  033%=      5-min Rain = 0
KWT1 210226Z 16009KT 33/14 A2986 RMK A01 T03270143  RH  033%=      5-min Rain = 0
KWT1 210227Z 15010KT 33/14 A2986 RMK A01 T03260143  RH  033%=      5-min Rain = 0
KWT1 210228Z 16011KT 33/14 A2986 RMK A01 T03260144  RH  033%=      5-min Rain = 0
KWT1 210229Z 15010KT 33/14 A2986 RMK A01 T03260143  RH  033%=      5-min Rain = 0
KWT1 210230Z 15009KT 33/14 A2986 RMK A01 T03250143  RH  033%=      5-min Rain = 0
KWT1 210231Z 16011KT 32/14 A2986 RMK A01 T03240143  RH  033%=      5-min Rain = 0
KWT1 210232Z 15010KT 32/14 A2986 RMK A01 T03240143  RH  034%=      5-min Rain = 0
KWT1 210233Z 16011KT 32/14 A2986 RMK A01 T03230143  RH  034%=      5-min Rain = 0
KWT1 210234Z 16012KT 32/14 A2986 RMK A01 T03230142  RH  034%=      5-min Rain = 0
KWT1 210235Z 15010KT 32/14 A2986 RMK A01 T03230143  RH  034%=      5-min Rain = 0
KWT1 210236Z 16011KT 32/14 A2986 RMK A01 T03230143  RH  034%=      5-min Rain = 0
KWT1 210237Z 16012KT 32/14 A2986 RMK A01 T03220143  RH  034%=      5-min Rain = 0
KWT1 210238Z 15010KT 32/14 A2986 RMK A01 T03220143  RH  034%=      5-min Rain = 0
KWT1 210239Z 15010KT 32/14 A2987 RMK A01 T03220143  RH  034%=      5-min Rain = 0
KWT1 210240Z 15011KT 32/14 A2987 RMK A01 T03220143  RH  034%=      5-min Rain = 0
KWT1 210241Z 15011KT 32/14 A2987 RMK A01 T03210142  RH  034%=      5-min Rain = 0
KWT1 210242Z 15011KT 32/14 A2987 RMK A01 T03210142  RH  034%=      5-min Rain = 0
KWT1 210243Z 16010KT 32/14 A2987 RMK A01 T03210142  RH  034%=      5-min Rain = 0
KWT1 210244Z 16009KT 32/14 A2987 RMK A01 T03210142  RH  034%=      5-min Rain = 0
KWT1 210245Z 16011KT 32/14 A2987 RMK A01 T03200142  RH  034%=      5-min Rain = 0
KWT1 210246Z 16011KT 32/14 A2987 RMK A01 T03200142  RH  034%=      5-min Rain = 0
KWT1 210247Z 15011KT 32/14 A2987 RMK A01 T03200142  RH  034%=      5-min Rain = 0
KWT1 210248Z 16010KT 32/14 A2987 RMK A01 T03200142  RH  034%=      5-min Rain = 0
KWT1 210249Z 16011KT 32/14 A2987 RMK A01 T03190142  RH  034%=      5-min Rain = 0
KWT1 210250Z 15010KT 32/14 A2987 RMK A01 T03190142  RH  034%=      5-min Rain = 0
KWT1 210251Z 16010KT 32/14 A2987 RMK A01 T03190142  RH  034%=      5-min Rain = 0
KWT1 210252Z 15011KT 32/14 A2987 RMK A01 T03180142  RH  034%=      5-min Rain = 0
KWT1 210253Z 16011KT 32/14 A2987 RMK A01 T03180142  RH  034%=      5-min Rain = 0
KWT1 210254Z 15010KT 32/14 A2987 RMK A01 T03180142  RH  034%=      5-min Rain = 0
KWT1 210255Z 15012KT 32/14 A2987 RMK A01 T03170142  RH  035%=      5-min Rain = 0
KWT1 210256Z 16010KT 32/14 A2987 RMK A01 T03170142  RH  035%=      5-min Rain = 0
KWT1 210257Z 16009KT 32/14 A2987 RMK A01 T03170142  RH  035%=      5-min Rain = 0
KWT1 210258Z 16011KT 32/14 A2987 RMK A01 T03170142  RH  035%=      5-min Rain = 0
KWT1 210259Z 16010KT 32/14 A2987 RMK A01 T03170142  RH  035%=      5-min Rain = 0
KWT1 210300Z 16011KT 32/14 A2987 RMK A01 T03160142  RH  035%=      5-min Rain = 0
KWT1 210301Z 15011KT 32/14 A2987 RMK A01 T03160142  RH  035%=      5-min Rain = 0
KWT1 210302Z 15011KT 32/14 A2987 RMK A01 T03160142  RH  035%=      5-min Rain = 0
KWT1 210303Z 16011KT 32/14 A2987 RMK A01 T03160142  RH  035%=      5-min Rain = 0
KWT1 210304Z 16012KT 32/14 A2987 RMK A01 T03160142  RH  035%=      5-min Rain = 0
KWT1 210305Z 16010KT 32/14 A2987 RMK A01 T03160142  RH  035%=      5-min Rain = 0
KWT1 210306Z 16012KT 32/14 A2988 RMK A01 T03160142  RH  035%=      5-min Rain = 0
KWT1 210307Z 16011KT 32/14 A2988 RMK A01 T03150142  RH  035%=      5-min Rain = 0
KWT1 210308Z 16011KT 32/14 A2988 RMK A01 T03150142  RH  035%=      5-min Rain = 0
KWT1 210309Z 16011KT 32/14 A2988 RMK A01 T03150142  RH  035%=      5-min Rain = 0
KWT1 210310Z 16011KT 32/14 A2988 RMK A01 T03150142  RH  035%=      5-min Rain = 0
KWT1 210311Z 16009KT 31/14 A2988 RMK A01 T03140142  RH  035%=      5-min Rain = 0
KWT1 210312Z 16010KT 31/14 A2988 RMK A01 T03140142  RH  035%=      5-min Rain = 0
KWT1 210313Z 16011KT 31/14 A2988 RMK A01 T03140142  RH  035%=      5-min Rain = 0
KWT1 210314Z 15010KT 31/14 A2988 RMK A01 T03140142  RH  035%=      5-min Rain = 0
KWT1 210315Z 16011KT 31/14 A2988 RMK A01 T03130142  RH  035%=      5-min Rain = 0
KWT1 210316Z 16009KT 31/14 A2988 RMK A01 T03130142  RH  035%=      5-min Rain = 0
KWT1 210317Z 16011KT 31/14 A2988 RMK A01 T03130142  RH  035%=      5-min Rain = 0
KWT1 210318Z 16011KT 31/14 A2988 RMK A01 T03130142  RH  035%=      5-min Rain = 0
KWT1 210319Z 16011KT 31/14 A2988 RMK A01 T03130142  RH  035%=      5-min Rain = 0
KWT1 210320Z 16011KT 31/14 A2988 RMK A01 T03130142  RH  035%=      5-min Rain = 0
KWT1 210321Z 16009KT 31/14 A2988 RMK A01 T03130142  RH  035%=      5-min Rain = 0
KWT1 210322Z 16009KT 31/14 A2988 RMK A01 T03130142  RH  035%=      5-min Rain = 0
KWT1 210323Z 16009KT 31/14 A2988 RMK A01 T03120142  RH  036%=      5-min Rain = 0
KWT1 210324Z 16009KT 31/14 A2988 RMK A01 T03110142  RH  036%=      5-min Rain = 0
KWT1 210325Z 17011KT 31/14 A2988 RMK A01 T03110142  RH  036%=      5-min Rain = 0
KWT1 210326Z 16010KT 31/14 A2988 RMK A01 T03110141  RH  036%=      5-min Rain = 0
KWT1 210327Z 16009KT 31/14 A2988 RMK A01 T03110142  RH  036%=      5-min Rain = 0
KWT1 210328Z 16010KT 31/14 A2988 RMK A01 T03110141  RH  036%=      5-min Rain = 0
KWT1 210329Z 16009KT 31/14 A2988 RMK A01 T03110142  RH  036%=      5-min Rain = 0
KWT1 210330Z 16010KT 31/14 A2989 RMK A01 T03100141  RH  036%=      5-min Rain = 0
KWT1 210331Z 16009KT 31/14 A2989 RMK A01 T03100141  RH  036%=      5-min Rain = 0
KWT1 210332Z 16010KT 31/14 A2989 RMK A01 T03100141  RH  036%=      5-min Rain = 0
KWT1 210333Z 16009KT 31/14 A2989 RMK A01 T03100141  RH  036%=      5-min Rain = 0
KWT1 210334Z 16010KT 31/14 A2989 RMK A01 T03100142  RH  036%=      5-min Rain = 0
KWT1 210335Z 16009KT 31/14 A2989 RMK A01 T03090142  RH  036%=      5-min Rain = 0
KWT1 210336Z 16008KT 31/14 A2989 RMK A01 T03090142  RH  036%=      5-min Rain = 0
KWT1 210337Z 16009KT 31/14 A2989 RMK A01 T03080142  RH  036%=      5-min Rain = 0
KWT1 210338Z 16010KT 31/14 A2989 RMK A01 T03080141  RH  036%=      5-min Rain = 0
KWT1 210339Z 16011KT 31/14 A2989 RMK A01 T03070141  RH  036%=      5-min Rain = 0
KWT1 210340Z 16011KT 31/14 A2989 RMK A01 T03080141  RH  036%=      5-min Rain = 0
KWT1 210341Z 16010KT 31/14 A2989 RMK A01 T03080141  RH  036%=      5-min Rain = 0
KWT1 210342Z 16009KT 31/14 A2989 RMK A01 T03080141  RH  036%=      5-min Rain = 0
KWT1 210343Z 16010KT 31/14 A2989 RMK A01 T03080141  RH  036%=      5-min Rain = 0
KWT1 210344Z 16010KT 31/14 A2989 RMK A01 T03070141  RH  036%=      5-min Rain = 0
KWT1 210345Z 16011KT 31/14 A2989 RMK A01 T03070141  RH  036%=      5-min Rain = 0
KWT1 210346Z 16010KT 31/14 A2989 RMK A01 T03070141  RH  036%=      5-min Rain = 0
KWT1 210347Z 16008KT 31/14 A2989 RMK A01 T03070141  RH  036%=      5-min Rain = 0
KWT1 210348Z 16010KT 31/14 A2989 RMK A01 T03060141  RH  037%=      5-min Rain = 0
KWT1 210349Z 16009KT 31/14 A2989 RMK A01 T03060141  RH  037%=      5-min Rain = 0
KWT1 210350Z 16010KT 31/14 A2989 RMK A01 T03060141  RH  037%=      5-min Rain = 0
KWT1 210351Z 16010KT 31/14 A2989 RMK A01 T03060141  RH  037%=      5-min Rain = 0
KWT1 210352Z 17009KT 31/14 A2989 RMK A01 T03060141  RH  037%=      5-min Rain = 0
KWT1 210353Z 17010KT 31/14 A2989 RMK A01 T03050141  RH  037%=      5-min Rain = 0
KWT1 210354Z 16010KT 31/14 A2989 RMK A01 T03060141  RH  037%=      5-min Rain = 0
KWT1 210355Z 16010KT 31/14 A2989 RMK A01 T03060141  RH  037%=      5-min Rain = 0
KWT1 210356Z 17011KT 31/14 A2989 RMK A01 T03050141  RH  037%=      5-min Rain = 0
KWT1 210357Z 17011KT 31/14 A2989 RMK A01 T03050140  RH  037%=      5-min Rain = 0
KWT1 210358Z 16009KT 31/14 A2989 RMK A01 T03050140  RH  037%=      5-min Rain = 0
KWT1 210359Z 16009KT 31/14 A2989 RMK A01 T03050140  RH  037%=      5-min Rain = 0
KWT1 210400Z 17010KT 31/14 A2989 RMK A01 T03060141  RH  037%=      5-min Rain = 0
KWT1 210401Z 16009KT 31/14 A2989 RMK A01 T03050140  RH  037%=      5-min Rain = 0
KWT1 210402Z 16009KT 31/14 A2989 RMK A01 T03050141  RH  037%=      5-min Rain = 0
KWT1 210403Z 17009KT 30/14 A2989 RMK A01 T03040140  RH  037%=      5-min Rain = 0
KWT1 210404Z 17010KT 31/14 A2989 RMK A01 T03050141  RH  037%=      5-min Rain = 0
KWT1 210405Z 16010KT 30/14 A2989 RMK A01 T03040140  RH  037%=      5-min Rain = 0
KWT1 210406Z 17010KT 30/14 A2989 RMK A01 T03040140  RH  037%=      5-min Rain = 0
KWT1 210407Z 17009KT 30/14 A299 RMK A01 T03040141  RH  037%=      5-min Rain = 0
KWT1 210408Z 17011KT 30/14 A299 RMK A01 T03040140  RH  037%=      5-min Rain = 0
KWT1 210409Z 16010KT 30/14 A299 RMK A01 T03030140  RH  037%=      5-min Rain = 0
KWT1 210410Z 17010KT 30/14 A299 RMK A01 T03040140  RH  037%=      5-min Rain = 0
KWT1 210411Z 17010KT 30/14 A299 RMK A01 T03030140  RH  037%=      5-min Rain = 0
KWT1 210412Z 16010KT 30/14 A299 RMK A01 T03030140  RH  037%=      5-min Rain = 0
KWT1 210413Z 16010KT 30/14 A299 RMK A01 T03030140  RH  037%=      5-min Rain = 0
KWT1 210414Z 17008KT 30/14 A299 RMK A01 T03030140  RH  037%=      5-min Rain = 0
KWT1 210415Z 16010KT 30/14 A299 RMK A01 T03020140  RH  037%=      5-min Rain = 0
KWT1 210416Z 16010KT 30/14 A299 RMK A01 T03020140  RH  037%=      5-min Rain = 0
KWT1 210417Z 16011KT 30/14 A299 RMK A01 T03020140  RH  037%=      5-min Rain = 0
KWT1 210418Z 17010KT 30/14 A299 RMK A01 T03020140  RH  037%=      5-min Rain = 0
KWT1 210419Z 17010KT 30/14 A299 RMK A01 T03020139  RH  037%=      5-min Rain = 0
KWT1 210420Z 16009KT 30/14 A299 RMK A01 T03020140  RH  037%=      5-min Rain = 0
KWT1 210421Z 16009KT 30/14 A299 RMK A01 T03020140  RH  037%=      5-min Rain = 0
KWT1 210422Z 16009KT 30/14 A299 RMK A01 T03020140  RH  037%=      5-min Rain = 0
KWT1 210423Z 16010KT 30/14 A299 RMK A01 T03010140  RH  037%=      5-min Rain = 0
KWT1 210424Z 16009KT 30/14 A299 RMK A01 T03010140  RH  037%=      5-min Rain = 0
KWT1 210425Z 16009KT 30/14 A299 RMK A01 T03010140  RH  038%=      5-min Rain = 0
KWT1 210426Z 16008KT 30/14 A299 RMK A01 T03000139  RH  038%=      5-min Rain = 0
KWT1 210427Z 16009KT 30/14 A299 RMK A01 T03000140  RH  038%=      5-min Rain = 0
KWT1 210428Z 16009KT 30/14 A299 RMK A01 T02990139  RH  038%=      5-min Rain = 0
KWT1 210429Z 16010KT 30/14 A299 RMK A01 T02990140  RH  038%=      5-min Rain = 0
KWT1 210430Z 16010KT 30/14 A299 RMK A01 T02990140  RH  038%=      5-min Rain = 0
KWT1 210431Z 16009KT 30/14 A299 RMK A01 T02990139  RH  038%=      5-min Rain = 0
KWT1 210432Z 16009KT 30/14 A299 RMK A01 T02980139  RH  038%=      5-min Rain = 0
KWT1 210433Z 16010KT 30/14 A299 RMK A01 T02980139  RH  038%=      5-min Rain = 0
KWT1 210434Z 16009KT 30/14 A299 RMK A01 T02980139  RH  038%=      5-min Rain = 0
KWT1 210435Z 16009KT 30/14 A299 RMK A01 T02980139  RH  038%=      5-min Rain = 0
KWT1 210436Z 16008KT 30/14 A299 RMK A01 T02970139  RH  038%=      5-min Rain = 0
KWT1 210437Z 16007KT 30/14 A299 RMK A01 T02960140  RH  038%=      5-min Rain = 0
KWT1 210438Z 16008KT 30/14 A299 RMK A01 T02960140  RH  039%=      5-min Rain = 0
KWT1 210439Z 16008KT 30/14 A299 RMK A01 T02950140  RH  039%=      5-min Rain = 0
KWT1 210440Z 16007KT 29/14 A299 RMK A01 T02940140  RH  039%=      5-min Rain = 0
KWT1 210441Z 16007KT 29/14 A2991 RMK A01 T02940140  RH  039%=      5-min Rain = 0
KWT1 210442Z 16007KT 29/14 A2991 RMK A01 T02930140  RH  039%=      5-min Rain = 0
KWT1 210443Z 16008KT 29/14 A2991 RMK A01 T02930140  RH  039%=      5-min Rain = 0
KWT1 210444Z 16008KT 29/14 A2991 RMK A01 T02920140  RH  039%=      5-min Rain = 0
KWT1 210445Z 16008KT 29/14 A2991 RMK A01 T02920140  RH  039%=      5-min Rain = 0
KWT1 210446Z 16009KT 29/14 A2991 RMK A01 T02920140  RH  039%=      5-min Rain = 0
KWT1 210447Z 16009KT 29/14 A2991 RMK A01 T02920140  RH  039%=      5-min Rain = 0
KWT1 210448Z 16008KT 29/14 A2991 RMK A01 T02920140  RH  039%=      5-min Rain = 0
KWT1 210449Z 16008KT 29/14 A2991 RMK A01 T02920140  RH  039%=      5-min Rain = 0
KWT1 210450Z 16008KT 29/14 A2991 RMK A01 T02910140  RH  039%=      5-min Rain = 0
KWT1 210451Z 16007KT 29/14 A2991 RMK A01 T02910140  RH  040%=      5-min Rain = 0
KWT1 210452Z 16008KT 29/14 A2991 RMK A01 T02910140  RH  040%=      5-min Rain = 0
KWT1 210453Z 16008KT 29/14 A2991 RMK A01 T02900139  RH  040%=      5-min Rain = 0
KWT1 210454Z 17009KT 29/14 A2991 RMK A01 T02900139  RH  040%=      5-min Rain = 0
KWT1 210455Z 17010KT 29/14 A2991 RMK A01 T02900139  RH  040%=      5-min Rain = 0
KWT1 210456Z 16009KT 29/14 A2991 RMK A01 T02910140  RH  040%=      5-min Rain = 0
KWT1 210457Z 16009KT 29/14 A2991 RMK A01 T02910140  RH  040%=      5-min Rain = 0
KWT1 210458Z 16008KT 29/14 A2991 RMK A01 T02910140  RH  040%=      5-min Rain = 0
KWT1 210459Z 16008KT 29/14 A2991 RMK A01 T02910140  RH  040%=      5-min Rain = 0

Page generated in 0.1222 seconds.